Flight Track Log - Related Links

Times and Time Zones

All times are in EDT time to prevent confusion due to time zone crossing. See the AIC164 flight status page for this flight to view local times or setup timezone preferences in your user account.

Time Position Orientation Groundspeed Altitude Reporting Facility
EDT Latitude Longitude Course Direction KTS MPH feet Rate Location/Type
Mon 11:22:07 AM 32.9906 -79.8711 34° Northeast 301 346 6,700  Level Jacksonville Center
Mon 11:23:07 AM 33.0047 -79.7717 80° East 312 359 9,300 2,100 Climbing Jacksonville Center
Mon 11:24:07 AM 33.0378 -79.6714 69° East 312 359 10,900 1,450 Climbing Jacksonville Center
Mon 11:25:00 AM 41.1189 -72.0692 45° Northeast  Level FlightAware Approximate
Mon 11:25:07 AM 33.0956 -79.5700 56° Northeast 336 387 12,200  Level Jacksonville Center
Mon 11:26:00 AM 41.2328 -71.9616 34° Northeast  Level FlightAware Approximate
Mon 11:26:07 AM 33.1553 -79.4539 58° Northeast 373 429 14,600  Level Jacksonville Center
Mon 11:27:07 AM 33.2358 -79.3514 47° Northeast 411 473 16,800 2,200 Climbing Jacksonville Center
Mon 11:28:07 AM 33.3361 -79.2828 30° Northeast 405 466 19,000 2,050 Climbing Jacksonville Center
Mon 11:29:07 AM 33.4428 -79.2161 28° Northeast 411 473 20,900 2,000 Climbing Jacksonville Center
Mon 11:30:07 AM 33.5511 -79.1444 29° Northeast 419 482 23,000 1,850 Climbing Jacksonville Center
Mon 11:31:07 AM 33.6678 -79.0694 28° Northeast 426 490 24,600 1,500 Climbing Jacksonville Center
Mon 11:32:07 AM 33.7717 -78.9800 36° Northeast 443 510 26,000 1,450 Climbing Jacksonville Center
Mon 11:33:07 AM 33.8747 -78.8756 40° Northeast 456 525 27,500 1,193 Climbing Jacksonville Center
Mon 11:34:48 AM 34.0394 -78.7094 40° Northeast 480 552 29,200 969 Climbing Washington Center
Mon 11:35:48 AM 34.1486 -78.6006 40° Northeast 492 566 30,100 893 Climbing Washington Center
Mon 11:36:49 AM 34.2556 -78.4914 40° Northeast 499 574 31,000 397 Climbing Washington Center
Mon 11:37:49 AM 34.3647 -78.3769 41° Northeast 504 580 30,900 -50 Descending Washington Center
Mon 11:38:50 AM 34.4717 -78.2672 40° Northeast 504 580 30,900 353 Level Washington Center
Mon 11:39:48 AM 34.5806 -78.1550 40° Northeast 504 580 31,600 1,059 Climbing Washington Center
Mon 11:40:49 AM 34.6892 -78.0422 40° Northeast 504 580 33,000 1,426 Climbing Washington Center
Mon 11:41:50 AM 34.7936 -77.9339 40° Northeast 504 580 34,500 1,109 Climbing Washington Center
Mon 11:42:48 AM 34.8958 -77.8206 42° Northeast 497 572 35,200 763 Climbing Washington Center
Mon 11:43:48 AM 35.0022 -77.7092 41° Northeast 497 572 36,000 446 Climbing Washington Center
Mon 11:44:49 AM 35.1064 -77.6003 41° Northeast 491 565 36,100 344 Climbing Washington Center
Mon 11:45:50 AM 35.2247 -77.5092 32° Northeast 491 565 36,700 454 Climbing Washington Center
Mon 11:46:48 AM 35.3450 -77.4281 29° Northeast 491 565 37,000 153 Climbing Washington Center
Mon 11:47:48 AM 35.4650 -77.3439 30° Northeast 491 565 37,000  Level Washington Center
Mon 11:48:48 AM 35.5831 -77.2597 30° Northeast 491 565 37,000  Level Washington Center
Mon 11:49:48 AM 35.7053 -77.1753 29° Northeast 491 565 37,000 -50 Level Washington Center
Mon 11:50:49 AM 35.8211 -77.0931 30° Northeast 485 558 36,900 -49 Descending Washington Center
Mon 11:51:50 AM 35.9433 -77.0056 30° Northeast 485 558 36,900 50 Level Washington Center
Mon 11:52:48 AM 36.0653 -76.9231 29° Northeast 491 565 37,000 50 Climbing Washington Center
Mon 11:53:49 AM 36.1850 -76.8400 29° Northeast 491 565 37,000  Level Washington Center
Mon 11:54:49 AM 36.3047 -76.7519 31° Northeast 491 565 37,000 -50 Level Washington Center
Mon 11:55:49 AM 36.4244 -76.6683 29° Northeast 491 565 36,900 -50 Descending Washington Center
Mon 11:56:50 AM 36.5464 -76.5822 30° Northeast 491 565 36,900  Level Washington Center
Mon 11:57:50 AM 36.6658 -76.4931 31° Northeast 491 565 36,900 51 Level Washington Center
Mon 11:58:48 AM 36.7939 -76.3958 31° Northeast 491 565 37,000 50 Climbing Washington Center
Mon 11:59:49 AM 36.9111 -76.3114 30° Northeast 491 565 37,000  Level Washington Center
Mon 12:00:49 PM 37.0264 -76.2267 30° Northeast 491 565 37,000  Level Washington Center
Mon 12:01:48 PM 37.1186 -76.1622 29° Northeast 491 565 37,000 257 Level Washington Center
Mon 12:07:50 PM 37.8394 -75.6273 31° Northeast 469 540 38,800 299 Climbing FlightAware ADS-B (KWWD)
Mon 12:08:30 PM 37.9131 -75.5721 31° Northeast 467 537 39,000 122 Climbing FlightAware ADS-B (KWWD)
Mon 12:09:28 PM 38.0068 -75.5017 32° Northeast 473 544 39,000  Level FlightAware ADS-B (KWWD)
Mon 12:10:24 PM 38.1213 -75.3967 40° Northeast 485 558 39,000  Level FlightAware ADS-B (KWWD)
Mon 12:11:10 PM 38.2026 -75.3118 40° Northeast 497 572 39,000  Level FlightAware ADS-B (KWWD)
Mon 12:11:56 PM 38.2854 -75.2251 40° Northeast 503 579 39,000  Level FlightAware ADS-B (KWWD)
Mon 12:12:49 PM 38.3802 -75.1252 40° Northeast 505 581 39,000  Level FlightAware ADS-B (KWWD)
Mon 12:13:19 PM 38.4195 -75.0838 40° Northeast 507 583 39,000  Level FlightAware ADS-B (KWWD)
Mon 12:14:18 PM 38.5408 -74.9557 40° Northeast 507 583 39,000  Level FlightAware ADS-B (KWWD)
Mon 12:15:16 PM 38.5821 -74.9119 40° Northeast 508 585 39,000  Level FlightAware ADS-B (KWWD)
Mon 12:15:52 PM 38.5821 -74.9119 40° Northeast 520 598 39,000  Level FlightAware ADS-B
Mon 12:16:44 PM 38.7640 -74.7181 40° Northeast 520 598 39,000  Level FlightAware ADS-B (EGBO)
Mon 12:18:04 PM 38.9570 -74.5116 40° Northeast 518 596 39,000  Level FlightAware ADS-B
Mon 12:18:51 PM 39.0439 -74.4179 40° Northeast 518 596 39,000  Level FlightAware ADS-B
Mon 12:19:06 PM 39.0703 -74.3894 41° Northeast 512 589 39,000  Level FlightAware ADS-B (KWWD)
Mon 12:19:42 PM 39.1365 -74.3179 40° Northeast 517 595 39,000  Level FlightAware ADS-B
Mon 12:20:00 PM 39.1705 -74.2810 40° Northeast 517 595 39,000  Level FlightAware ADS-B
Mon 12:20:58 PM 39.2748 -74.1675 41° Northeast 513 590 39,000  Level FlightAware ADS-B (KWWD)
Mon 12:21:57 PM 39.3836 -74.0487 41° Northeast 513 590 39,000  Level FlightAware ADS-B (KWWD)
Mon 12:22:38 PM 39.4516 -73.9741 41° Northeast 519 597 39,000  Level FlightAware ADS-B (KSNC)
Mon 12:23:26 PM 39.5471 -73.8693 40° Northeast 519 597 39,000  Level FlightAware ADS-B (KSNC)
Mon 12:24:10 PM 39.6264 -73.7818 41° Northeast 514 592 39,000  Level FlightAware ADS-B (KSNC)
Mon 12:24:50 PM 39.6318 -73.7758 41° Northeast 512 589 39,000  Level FlightAware ADS-B (KWWD)
Mon 12:25:30 PM 39.7752 -73.6425 29° Northeast 485 558 39,000  Level FlightAware ADS-B (KSNC)
Mon 12:25:51 PM 39.8172 -73.6123 29° Northeast 485 558 39,000  Level FlightAware ADS-B
Mon 12:26:22 PM 39.8724 -73.5723 29° Northeast 486 559 39,000  Level FlightAware ADS-B (KSNC)
Mon 12:26:54 PM 39.9301 -73.5305 29° Northeast 489 563 39,000  Level FlightAware ADS-B (KSNC)
Mon 12:27:25 PM 39.9819 -73.4929 29° Northeast 492 566 39,000  Level FlightAware ADS-B (KSNC)
Mon 12:27:49 PM 40.0485 -73.4445 30° Northeast 478 550 39,000  Level FlightAware ADS-B (KWWD)
Mon 12:28:24 PM 40.0561 -73.4390 29° Northeast 489 563 39,000  Level FlightAware ADS-B (KSNC)
Mon 12:29:22 PM 40.2302 -73.3118 29° Northeast 489 563 39,000  Level FlightAware ADS-B (KSNC)
Mon 12:29:53 PM 40.2921 -73.2664 29° Northeast 489 563 39,000  Level FlightAware ADS-B (KSNC)
Mon 12:30:30 PM 40.3659 -73.2123 29° Northeast 489 563 39,000  Level FlightAware ADS-B (KSNC)
Mon 12:31:01 PM 40.4239 -73.1696 29° Northeast 490 564 39,000  Level FlightAware ADS-B (KSNC)
Mon 12:31:48 PM 40.5206 -73.0981 29° Northeast 490 564 39,000  Level FlightAware ADS-B (KSNC)
Mon 12:32:24 PM 40.5740 -73.0586 30° Northeast 492 566 39,000  Level FlightAware ADS-B (KSNC)
Mon 12:33:04 PM 40.6615 -72.9937 30° Northeast 493 567 39,000  Level FlightAware ADS-B (KSNC)
Mon 12:33:36 PM 40.7350 -72.9389 30° Northeast 495 570 39,000  Level FlightAware ADS-B (KSNC)
Mon 12:34:17 PM 40.8089 -72.8840 30° Northeast 502 578 39,000  Level FlightAware ADS-B (KSNC)
Mon 12:34:48 PM 40.8777 -72.8324 30° Northeast 506 582 39,000  Level FlightAware ADS-B (KSNC)
Mon 12:35:35 PM 40.9721 -72.7616 30° Northeast 511 588 39,000  Level FlightAware ADS-B (KSNC)
Mon 12:36:06 PM 41.0360 -72.7135 30° Northeast 512 589 39,000  Level FlightAware ADS-B (KSNC)
Mon 12:36:45 PM 41.1202 -72.6500 30° Northeast 510 587 39,000  Level FlightAware ADS-B (KSNC)
Mon 12:37:18 PM 41.1766 -72.6072 30° Northeast 509 586 39,000  Level FlightAware ADS-B (KSNC)
Mon 12:38:04 PM 41.2379 -72.5608 30° Northeast 508 585 39,000  Level FlightAware ADS-B (KSNC)
Mon 12:38:34 PM 41.3320 -72.4893 30° Northeast 507 583 39,000  Level FlightAware ADS-B (KSNC)
Mon 12:39:14 PM 41.4121 -72.4283 30° Northeast 508 585 39,000  Level FlightAware ADS-B (KSNC)
Mon 12:39:47 PM 41.4914 -72.3678 30° Northeast 508 585 39,000  Level FlightAware ADS-B (KSNC)
Mon 12:40:18 PM 41.5468 -72.3253 30° Northeast 508 585 39,000  Level FlightAware ADS-B (KSNC)
Mon 12:41:30 PM 41.6992 -72.2081 30° Northeast 507 583 39,000  Level FlightAware ADS-B (KSNC)
Mon 12:42:00 PM 41.7548 -72.1651 30° Northeast 507 583 39,000  Level FlightAware ADS-B (KSNC)
Mon 12:42:33 PM 41.8242 -72.1115 30° Northeast 506 582 39,000  Level FlightAware ADS-B (KSNC)
Mon 12:43:14 PM 41.9016 -72.0515 30° Northeast 507 583 39,000  Level FlightAware ADS-B (KSNC)
Mon 12:43:48 PM 41.9794 -71.9909 30° Northeast 507 583 39,000  Level FlightAware ADS-B
Mon 12:44:18 PM 42.0401 -71.9435 30° Northeast 507 583 39,000  Level FlightAware ADS-B
Mon 12:44:48 PM 42.0997 -71.8970 31° Northeast 501 577 39,000  Level FlightAware ADS-B
Mon 12:45:19 PM 42.1552 -71.8535 30° Northeast 507 583 39,000  Level FlightAware ADS-B (KSNC)
Mon 12:45:58 PM 42.2431 -71.7844 31° Northeast 501 577 39,000  Level FlightAware ADS-B
Mon 12:46:08 PM 42.2630 -71.7688 31° Northeast 501 577 39,000  Level FlightAware ADS-B
Mon 12:46:45 PM 42.3384 -71.7093 30° Northeast 508 585 39,000  Level FlightAware ADS-B (KSNC)
Mon 12:46:52 PM 42.3526 -71.6981 30° Northeast 507 583 39,000  Level FlightAware ADS-B
Mon 12:47:24 PM 42.4177 -71.6466 30° Northeast 506 582 39,000  Level FlightAware ADS-B
Mon 12:47:58 PM 42.4857 -71.5926 31° Northeast 505 581 39,000  Level FlightAware ADS-B
Mon 12:48:04 PM 42.4954 -71.5849 31° Northeast 505 581 39,000  Level FlightAware ADS-B (KOWD)
Mon 12:48:38 PM 42.5661 -71.5287 31° Northeast 504 580 39,000  Level FlightAware ADS-B
Mon 12:49:16 PM 42.6395 -71.4702 31° Northeast 503 579 39,000  Level FlightAware ADS-B
Mon 12:49:48 PM 42.7056 -71.4173 31° Northeast 503 579 39,000  Level FlightAware ADS-B
Mon 12:50:20 PM 42.7696 -71.3660 31° Northeast 503 579 39,000  Level FlightAware ADS-B
Mon 12:50:54 PM 42.8352 -71.3133 31° Northeast 502 578 39,000  Level FlightAware ADS-B
Mon 12:51:25 PM 42.8975 -71.2632 31° Northeast 502 578 39,000  Level FlightAware ADS-B
Mon 12:51:56 PM 42.9458 -71.2242 31° Northeast 502 578 39,000  Level FlightAware ADS-B
Mon 12:52:27 PM 43.0228 -71.1619 31° Northeast 502 578 39,000  Level FlightAware ADS-B
Mon 12:52:57 PM 43.0738 -71.1204 31° Northeast 501 577 39,000  Level FlightAware ADS-B
Mon 12:53:28 PM 43.1451 -71.0626 31° Northeast 502 578 39,000  Level FlightAware ADS-B
Mon 12:53:58 PM 43.2044 -71.0143 31° Northeast 502 578 39,000  Level FlightAware ADS-B
Mon 12:54:34 PM 43.2689 -70.9617 31° Northeast 501 577 39,000  Level FlightAware ADS-B
Mon 12:55:07 PM 43.3413 -70.9023 31° Northeast 502 578 39,000  Level FlightAware ADS-B
Mon 12:55:30 PM 43.3880 -70.8640 30° Northeast 502 578 39,000  Level FlightAware ADS-B
Mon 12:55:39 PM 43.4024 -70.8521 31° Northeast 501 577 39,000  Level FlightAware ADS-B
Mon 12:56:02 PM 43.4480 -70.8140 30° Northeast 501 577 39,000  Level FlightAware ADS-B
Mon 12:56:17 PM 43.4805 -70.7878 31° Northeast 501 577 39,000  Level FlightAware ADS-B
Mon 12:56:47 PM 43.5344 -70.7433 31° Northeast 501 577 39,000  Level FlightAware ADS-B
Mon 12:57:15 PM 43.5960 -70.6920 31° Northeast 501 577 39,000  Level FlightAware ADS-B
Mon 12:57:18 PM 43.6014 -70.6878 32° Northeast 494 568 39,000  Level FlightAware ADS-B
Mon 12:57:48 PM 43.6564 -70.6421 31° Northeast 501 577 39,000  Level FlightAware ADS-B (EGHI / SOU)
Mon 12:58:21 PM 43.7261 -70.5842 31° Northeast 501 577 39,000  Level FlightAware ADS-B
Mon 12:59:08 PM 43.7238 -70.5861 31° Northeast 501 577 39,000  Level FlightAware ADS-B (EGHI / SOU)
Mon 01:00:28 PM 43.9794 -70.3721 32° Northeast 495 570 39,000  Level FlightAware ADS-B
Mon 01:00:36 PM 43.9481 -70.3985 31° Northeast 502 578 39,000  Level FlightAware ADS-B (EGHI / SOU)
Mon 01:00:52 PM 44.0191 -70.3387 31° Northeast 502 578 39,000  Level FlightAware ADS-B (EGHI / SOU)
Mon 01:01:23 PM 44.0881 -70.2804 32° Northeast 496 571 39,000  Level FlightAware ADS-B
Mon 01:01:56 PM 44.1522 -70.2264 31° Northeast 504 580 39,000  Level FlightAware ADS-B
Mon 01:02:29 PM 44.2163 -70.1720 31° Northeast 505 581 39,000  Level FlightAware ADS-B (EGHI / SOU)
Mon 01:03:01 PM 44.2800 -70.1178 32° Northeast 506 582 39,000  Level FlightAware ADS-B
Mon 01:03:30 PM 44.3339 -70.0718 31° Northeast 507 583 39,000  Level FlightAware ADS-B
Mon 01:04:18 PM 44.4107 -70.0063 32° Northeast 508 585 39,000  Level FlightAware ADS-B (EGHI / SOU)
Mon 01:04:49 PM 44.4899 -69.9384 32° Northeast 508 585 39,000  Level FlightAware ADS-B (EGHI / SOU)
Mon 01:05:22 PM 44.5631 -69.8754 32° Northeast 508 585 39,000  Level FlightAware ADS-B
Mon 01:05:52 PM 44.6212 -69.8254 32° Northeast 509 586 39,000  Level FlightAware ADS-B
Mon 01:06:31 PM 44.6579 -69.7937 32° Northeast 507 583 39,000  Level FlightAware ADS-B
Mon 01:07:01 PM 44.7600 -69.7051 32° Northeast 503 579 39,000  Level FlightAware ADS-B
Mon 01:07:33 PM 44.8251 -69.6485 32° Northeast 500 575 39,000  Level FlightAware ADS-B
Mon 01:08:03 PM 44.8824 -69.5985 32° Northeast 500 575 39,000  Level FlightAware ADS-B
Mon 01:08:36 PM 44.9483 -69.5410 32° Northeast 500 575 39,000  Level FlightAware ADS-B
Mon 01:09:07 PM 45.0090 -69.4877 32° Northeast 500 575 39,000  Level FlightAware ADS-B
Mon 01:09:41 PM 45.0729 -69.4317 32° Northeast 499 574 39,000  Level FlightAware ADS-B
Mon 01:10:17 PM 45.1463 -69.3670 32° Northeast 499 574 39,000  Level FlightAware ADS-B (EGHI / SOU)
Mon 01:10:56 PM 45.2058 -69.3145 32° Northeast 500 575 39,000  Level FlightAware ADS-B (EGHI / SOU)
Mon 01:11:32 PM 45.2872 -69.2422 32° Northeast 500 575 39,000  Level FlightAware ADS-B
Mon 01:12:03 PM 45.3539 -69.1831 32° Northeast 501 577 39,000  Level FlightAware ADS-B
Mon 01:12:39 PM 45.4239 -69.1206 32° Northeast 500 575 39,000  Level FlightAware ADS-B
Mon 01:13:12 PM 45.4826 -69.0683 32° Northeast 500 575 39,000  Level FlightAware ADS-B
Mon 01:13:53 PM 45.5690 -68.9906 32° Northeast 498 573 39,000  Level FlightAware ADS-B
Mon 01:14:26 PM 45.6336 -68.9325 32° Northeast 498 573 39,000  Level FlightAware ADS-B
Mon 01:15:09 PM 45.7113 -68.8624 32° Northeast 497 572 39,000  Level FlightAware ADS-B
Mon 01:15:39 PM 45.7730 -68.8066 32° Northeast 497 572 39,000  Level FlightAware ADS-B
Mon 01:16:19 PM 45.8451 -68.7412 32° Northeast 496 571 39,000  Level FlightAware ADS-B
Mon 01:16:49 PM 45.9105 -68.6816 33° Northeast 497 572 39,000  Level FlightAware ADS-B
Mon 01:17:19 PM 45.9647 -68.6321 33° Northeast 497 572 39,000  Level FlightAware ADS-B
Mon 01:17:49 PM 46.0193 -68.5822 33° Northeast 496 571 39,000  Level FlightAware ADS-B
Mon 01:18:28 PM 46.1011 -68.5072 33° Northeast 496 571 39,000  Level FlightAware ADS-B
Mon 01:18:59 PM 46.1578 -68.4549 33° Northeast 494 568 39,000  Level FlightAware ADS-B
Mon 01:19:39 PM 46.2266 -68.3914 33° Northeast 494 568 39,000  Level FlightAware ADS-B
Mon 01:20:09 PM 46.2861 -68.3364 33° Northeast 494 568 39,000  Level FlightAware ADS-B
Mon 01:20:39 PM 46.3537 -68.2737 33° Northeast 494 568 39,000  Level FlightAware ADS-B
Mon 01:21:10 PM 46.4117 -68.2197 33° Northeast 494 568 39,000  Level FlightAware ADS-B
Mon 01:21:48 PM 46.4868 -68.1496 33° Northeast 494 568 39,000  Level FlightAware ADS-B
Mon 01:22:19 PM 46.5366 -68.1030 33° Northeast 493 567 39,000  Level FlightAware ADS-B
Mon 01:22:50 PM 46.5833 -68.0500 33° Northeast 490 564 39,000 -70 Level Moncton Center
Mon 01:23:45 PM 46.6853 -67.9619 31° Northeast 494 568 38,900  Descending Boston Center
Mon 01:24:46 PM 46.8008 -67.8550 32° Northeast 493 567 39,000 49 Climbing Boston Center
Mon 01:25:47 PM 46.9372 -67.7250 33° Northeast 486 559 39,000  Level Boston Center
Mon 01:26:50 PM 47.0333 -67.6167 38° Northeast 490 564 39,000  Level Moncton Center
Mon 01:27:50 PM 47.1500 -67.5000 34° Northeast 490 564 39,000  Level Moncton Center
Mon 01:28:51 PM 47.2811 -67.3914 29° Northeast 494 568 39,000  Level Boston Center
Mon 01:29:52 PM 47.3947 -67.2792 34° Northeast 492 566 39,000  Level Boston Center
Mon 01:30:50 PM 47.5000 -67.1667 36° Northeast 480 552 39,000  Level Moncton Center
Mon 01:32:50 PM 47.7333 -66.9667 30° Northeast 490 564 39,000  Level Moncton Center
Mon 01:33:50 PM 47.8333 -66.8500 38° Northeast 480 552 39,000  Level Moncton Center
Mon 01:34:50 PM 47.9667 -66.7167 34° Northeast 490 564 39,000  Level Moncton Center
Mon 01:35:50 PM 48.0667 -66.6333 29° Northeast 490 564 39,000  Level Moncton Center
Mon 01:36:50 PM 48.1833 -66.5000 37° Northeast 480 552 39,000  Level Moncton Center
Mon 01:37:50 PM 48.3000 -66.4167 25° Northeast 480 552 39,000  Level Moncton Center
Mon 01:38:50 PM 48.4000 -66.2833 41° Northeast 490 564 39,000  Level Moncton Center
Mon 01:39:50 PM 48.5167 -66.2000 25° Northeast 500 575 39,000  Level Moncton Center
Mon 01:40:50 PM 48.6500 -66.0667 33° Northeast 510 587 39,000  Level Moncton Center
Mon 01:41:50 PM 48.7667 -65.9500 33° Northeast 500 575 39,000  Level Moncton Center
Mon 01:42:50 PM 48.8833 -65.8167 37° Northeast 510 587 39,000  Level Moncton Center
Mon 01:43:50 PM 49.0000 -65.7000 33° Northeast 500 575 39,000  Level Moncton Center
Mon 01:44:50 PM 49.1167 -65.5667 37° Northeast 500 575 39,000  Level Moncton Center
Mon 01:45:50 PM 49.2333 -65.4667 29° Northeast 500 575 39,000  Level Moncton Center
Mon 01:46:50 PM 49.3500 -65.3500 33° Northeast 500 575 39,000  Level Moncton Center
Mon 01:47:50 PM 49.4667 -65.2167 37° Northeast 500 575 39,000  Level Moncton Center
Mon 01:48:50 PM 49.5833 -65.1167 29° Northeast 500 575 39,000  Level Moncton Center
Mon 01:49:50 PM 49.6833 -65.0000 37° Northeast 500 575 39,000  Level Moncton Center
Mon 01:50:50 PM 49.8000 -64.8667 36° Northeast 500 575 39,000  Level Moncton Center
Mon 01:51:50 PM 49.9333 -64.7333 33° Northeast 500 575 39,000  Level Moncton Center
Mon 01:52:50 PM 50.0500 -64.6333 29° Northeast 510 587 39,000  Level Moncton Center
Mon 01:53:50 PM 50.1667 -64.5000 36° Northeast 510 587 39,000  Level Moncton Center
Mon 01:54:50 PM 50.2833 -64.3667 36° Northeast 510 587 39,000  Level Moncton Center
Mon 01:55:50 PM 50.4000 -64.2333 36° Northeast 510 587 39,000  Level Moncton Center
Mon 01:56:50 PM 50.5167 -64.1000 36° Northeast 510 587 39,000  Level Moncton Center
Mon 01:57:50 PM 50.6333 -63.9667 36° Northeast 510 587 39,000  Level Moncton Center
Mon 01:58:50 PM 50.7500 -63.8667 28° Northeast 510 587 39,000  Level Moncton Center
Mon 01:59:50 PM 50.8667 -63.7333 36° Northeast 510 587 39,000  Level Moncton Center
Mon 02:00:50 PM 50.9833 -63.6000 36° Northeast 510 587 39,000  Level Moncton Center
Mon 02:01:50 PM 51.1000 -63.4667 36° Northeast 520 598 39,000  Level Moncton Center
Mon 02:02:50 PM 51.2167 -63.3333 36° Northeast 510 587 39,000  Level Moncton Center
Mon 02:03:50 PM 51.3333 -63.2167 32° Northeast 520 598 39,000  Level Moncton Center
Mon 02:04:50 PM 51.4500 -63.0833 35° Northeast 510 587 39,000  Level Moncton Center
Mon 02:05:50 PM 51.5500 -62.9500 40° Northeast 510 587 39,000  Level Moncton Center
Mon 02:06:50 PM 51.6667 -62.8000 39° Northeast 510 587 39,000  Level Moncton Center
Mon 02:07:50 PM 51.8000 -62.6667 32° Northeast 510 587 39,000  Level Moncton Center
Mon 02:08:50 PM 51.9000 -62.5333 39° Northeast 510 587 39,000  Level Moncton Center
Mon 02:09:50 PM 52.0167 -62.4167 32° Northeast 500 575 39,000  Level Moncton Center
Mon 02:11:00 PM 52.1500 -62.2667 35° Northeast 500 575 39,000  Level Gander Center
Mon 02:12:00 PM 52.2500 -62.1333 39° Northeast 500 575 39,000  Level Gander Center
Mon 02:12:50 PM 52.3667 -61.9833 38° Northeast 510 587 39,000  Level Moncton Center
Mon 02:13:50 PM 52.4833 -61.8667 31° Northeast 510 587 39,000  Level Moncton Center
Mon 02:14:50 PM 52.5833 -61.7333 39° Northeast 510 587 39,000  Level Moncton Center
Mon 02:15:50 PM 52.7000 -61.5833 38° Northeast 510 587 39,000  Level Moncton Center
Mon 02:17:00 PM 52.8333 -61.4167 37° Northeast 520 598 39,000  Level Gander Center
Mon 02:18:00 PM 52.9500 -61.2500 41° Northeast 520 598 39,000  Level Gander Center
Mon 02:19:00 PM 53.0500 -61.0833 45° Northeast 520 598 39,000  Level Gander Center
Mon 02:20:00 PM 53.1667 -60.9167 41° Northeast 530 610 39,000  Level Gander Center
Mon 02:21:00 PM 53.2667 -60.7500 45° Northeast 520 598 39,000  Level Gander Center
Mon 02:22:00 PM 53.3833 -60.5833 40° Northeast 530 610 39,000  Level Gander Center
Mon 02:23:00 PM 53.4833 -60.4167 45° Northeast 530 610 39,000  Level Gander Center
Mon 02:24:00 PM 53.5833 -60.2667 42° Northeast 520 598 39,000  Level Gander Center
Mon 02:25:00 PM 53.6833 -60.1000 45° Northeast 520 598 39,000  Level Gander Center
Mon 02:26:00 PM 53.7833 -59.9167 47° Northeast 530 610 39,000  Level Gander Center
Mon 02:27:00 PM 53.9000 -59.7500 40° Northeast 530 610 39,000  Level Gander Center
Mon 02:28:00 PM 54.0167 -59.5833 40° Northeast 530 610 39,000  Level Gander Center
Mon 02:29:00 PM 54.1167 -59.4000 47° Northeast 530 610 39,000  Level Gander Center
Mon 02:30:00 PM 54.2333 -59.2167 43° Northeast 530 610 39,000  Level Gander Center
Mon 02:31:00 PM 54.3333 -59.0500 44° Northeast 530 610 39,000  Level Gander Center
Mon 02:31:50 PM 54.4000 -58.9167 49° Northeast 530 610 39,000  Level Moncton Center
Mon 02:32:50 PM 54.5333 -58.7167 41° Northeast 530 610 39,000  Level Moncton Center
Mon 02:33:50 PM 54.6167 -58.5333 52° Northeast 530 610 39,000  Level Moncton Center
Mon 02:34:50 PM 54.7333 -58.3500 42° Northeast 530 610 39,000  Level Moncton Center
Mon 02:35:50 PM 54.8333 -58.1833 44° Northeast 530 610 39,000  Level Moncton Center
Mon 02:36:50 PM 54.9500 -58.0000 42° Northeast 530 610 39,000  Level Moncton Center
Mon 02:37:50 PM 55.0333 -57.8000 54° Northeast 530 610 39,000  Level Moncton Center
Mon 02:38:50 PM 55.1500 -57.6167 42° Northeast 530 610 39,000  Level Moncton Center
Mon 02:39:50 PM 55.2500 -57.4500 43° Northeast 530 610 39,000  Level Moncton Center
Mon 02:41:00 PM 55.3667 -57.2167 49° Northeast 530 610 39,000  Level Gander Center
Mon 02:42:00 PM 55.4833 -57.0333 42° Northeast 530 610 39,000  Level Gander Center
Mon 02:43:00 PM 55.5500 -56.8167 61° Northeast 530 610 39,000  Level Gander Center
Mon 02:44:00 PM 55.6167 -56.5833 63° Northeast 540 621 39,000  Level Gander Center
Mon 02:45:00 PM 55.6667 -56.3333 70° East 550 633 39,000  Level Gander Center
Mon 02:46:00 PM 55.7333 -56.0667 66° East 550 633 39,000  Level Gander Center
Mon 02:47:00 PM 55.7833 -55.8500 68° East 550 633 39,000  Level Gander Center
Mon 02:48:00 PM 55.8500 -55.6000 65° Northeast 550 633 39,000  Level Gander Center
Mon 02:49:00 PM 55.9167 -55.3167 67° East 550 633 39,000  Level Gander Center
Mon 02:50:00 PM 55.9667 -55.0667 70° East 550 633 39,000  Level Gander Center
Mon 02:51:00 PM 56.0167 -54.8500 67° East 550 633 39,000  Level Gander Center
Mon 02:52:00 PM 56.0833 -54.6000 64° Northeast 550 633 39,000  Level Gander Center
Mon 02:53:00 PM 56.1333 -54.3500 70° East 550 633 39,000  Level Gander Center
Mon 02:54:00 PM 56.1833 -54.0667 72° East 550 633 39,000  Level Gander Center
Mon 02:55:00 PM 56.2333 -53.8500 67° East 540 621 39,000  Level Gander Center
Mon 02:56:37 PM 56.3167 -53.4500 69° East 460 529 39,000  Level Gander Center
Mon 02:57:37 PM 56.3833 -53.1833 66° East 530 610 39,000  Level Gander Center
Mon 02:58:37 PM 56.4333 -52.9333 70° East 550 633 39,000  Level Gander Center
Mon 02:59:37 PM 56.4667 -52.6500 78° East 550 633 39,000  Level Gander Center
Mon 03:00:37 PM 56.5333 -52.4333 61° Northeast 540 621 39,000  Level Gander Center
Mon 03:01:37 PM 56.5833 -52.1500 72° East 540 621 39,000  Level Gander Center
Mon 03:02:37 PM 56.6333 -51.9167 69° East 540 621 39,000 Level Gander Center
Mon 03:05:00 PM 56.7250 -51.4551 70° East  Level FlightAware Approximate
Mon 03:12:00 PM 57.0383 -49.7306 75° East  Level FlightAware Approximate
Mon 03:13:00 PM 57.0736 -49.4779 75° East  Level FlightAware Approximate
Mon 03:14:00 PM 57.1084 -49.2247 76° East  Level FlightAware Approximate
Mon 03:15:00 PM 57.1426 -48.9710 76° East  Level FlightAware Approximate
Mon 03:16:00 PM 57.1764 -48.7169 76° East  Level FlightAware Approximate
Mon 03:17:00 PM 57.2096 -48.4623 76° East  Level FlightAware Approximate
Mon 03:18:00 PM 57.2424 -48.2072 77° East  Level FlightAware Approximate
Mon 03:19:00 PM 57.2746 -47.9517 77° East  Level FlightAware Approximate
Mon 03:20:00 PM 57.3063 -47.6958 77° East  Level FlightAware Approximate
Mon 03:21:00 PM 57.3375 -47.4394 77° East  Level FlightAware Approximate
Mon 03:22:00 PM 57.3681 -47.1826 77° East  Level FlightAware Approximate
Mon 03:23:00 PM 57.3983 -46.9253 78° East  Level FlightAware Approximate
Mon 03:24:00 PM 57.4279 -46.6676 78° East  Level FlightAware Approximate
Mon 03:25:00 PM 57.4570 -46.4096 78° East  Level FlightAware Approximate
Mon 03:26:00 PM 57.4855 -46.1511 78° East  Level FlightAware Approximate
Mon 03:27:00 PM 57.5135 -45.8922 79° East  Level FlightAware Approximate
Mon 03:28:00 PM 57.5410 -45.6329 79° East  Level FlightAware Approximate
Mon 03:29:00 PM 57.5680 -45.3733 79° East  Level FlightAware Approximate
Mon 03:30:00 PM 57.5944 -45.1132 79° East  Level FlightAware Approximate
Mon 03:31:00 PM 57.6203 -44.8528 79° East  Level FlightAware Approximate
Mon 03:32:00 PM 57.6457 -44.5920 80° East  Level FlightAware Approximate
Mon 03:33:00 PM 57.6705 -44.3309 80° East  Level FlightAware Approximate
Mon 03:34:00 PM 57.6948 -44.0694 80° East  Level FlightAware Approximate
Mon 03:35:00 PM 57.7185 -43.8075 80° East  Level FlightAware Approximate
Mon 03:36:00 PM 57.7417 -43.5453 80° East  Level FlightAware Approximate
Mon 03:37:00 PM 57.7644 -43.2828 81° East  Level FlightAware Approximate
Mon 03:38:00 PM 57.7865 -43.0200 81° East  Level FlightAware Approximate
Mon 03:39:00 PM 57.8080 -42.7568 81° East  Level FlightAware Approximate
Mon 03:40:00 PM 57.8291 -42.4933 81° East  Level FlightAware Approximate
Mon 03:41:00 PM 57.8495 -42.2295 82° East  Level FlightAware Approximate
Mon 03:42:00 PM 57.8695 -41.9655 82° East  Level FlightAware Approximate
Mon 03:43:00 PM 57.8889 -41.7011 82° East  Level FlightAware Approximate
Mon 03:44:00 PM 57.9077 -41.4364 82° East  Level FlightAware Approximate
Mon 03:45:00 PM 57.9260 -41.1715 82° East  Level FlightAware Approximate
Mon 03:46:00 PM 57.9437 -40.9063 83° East  Level FlightAware Approximate
Mon 03:47:00 PM 57.9609 -40.6409 83° East  Level FlightAware Approximate
Mon 03:48:00 PM 57.9775 -40.3752 83° East  Level FlightAware Approximate
Mon 03:49:00 PM 57.9936 -40.1093 83° East  Level FlightAware Approximate
Mon 03:50:00 PM 58.0061 -39.8426 86° East  Level FlightAware Approximate
Mon 03:51:00 PM 58.0160 -39.5754 86° East  Level FlightAware Approximate
Mon 03:52:00 PM 58.0253 -39.3080 86° East  Level FlightAware Approximate
Mon 03:53:00 PM 58.0341 -39.0406 86° East  Level FlightAware Approximate
Mon 03:54:00 PM 58.0423 -38.7730 87° East  Level FlightAware Approximate
Mon 03:55:00 PM 58.0499 -38.5052 87° East  Level FlightAware Approximate
Mon 03:56:00 PM 58.0570 -38.2374 87° East  Level FlightAware Approximate
Mon 03:57:00 PM 58.0635 -37.9695 87° East  Level FlightAware Approximate
Mon 03:58:00 PM 58.0695 -37.7015 87° East  Level FlightAware Approximate
Mon 03:59:00 PM 58.0749 -37.4333 88° East  Level FlightAware Approximate
Mon 04:00:00 PM 58.0797 -37.1651 88° East  Level FlightAware Approximate
Mon 04:01:00 PM 58.0840 -36.8969 88° East  Level FlightAware Approximate
Mon 04:02:00 PM 58.0877 -36.6286 88° East  Level FlightAware Approximate
Mon 04:03:00 PM 58.0908 -36.3602 89° East  Level FlightAware Approximate
Mon 04:04:00 PM 58.0934 -36.0918 89° East  Level FlightAware Approximate
Mon 04:05:00 PM 58.0954 -35.8233 89° East  Level FlightAware Approximate
Mon 04:06:00 PM 58.0969 -35.5549 89° East  Level FlightAware Approximate
Mon 04:07:00 PM 58.0978 -35.2864 90° East  Level FlightAware Approximate
Mon 04:08:00 PM 58.0981 -35.0179 90° East  Level FlightAware Approximate
Mon 04:09:00 PM 58.0978 -34.7494 90° East  Level FlightAware Approximate
Mon 04:10:00 PM 58.0970 -34.4809 90° East  Level FlightAware Approximate
Mon 04:11:00 PM 58.0957 -34.2124 90° East  Level FlightAware Approximate
Mon 04:12:00 PM 58.0937 -33.9440 91° East  Level FlightAware Approximate
Mon 04:13:00 PM 58.0912 -33.6755 91° East  Level FlightAware Approximate
Mon 04:14:00 PM 58.0882 -33.4072 91° East  Level FlightAware Approximate
Mon 04:15:00 PM 58.0845 -33.1388 91° East  Level FlightAware Approximate
Mon 04:16:00 PM 58.0803 -32.8706 92° East  Level FlightAware Approximate
Mon 04:17:00 PM 58.0756 -32.6024 92° East  Level FlightAware Approximate
Mon 04:18:00 PM 58.0703 -32.3342 92° East  Level FlightAware Approximate
Mon 04:19:00 PM 58.0644 -32.0662 92° East  Level FlightAware Approximate
Mon 04:20:00 PM 58.0579 -31.7983 92° East  Level FlightAware Approximate
Mon 04:21:00 PM 58.0509 -31.5304 93° East  Level FlightAware Approximate
Mon 04:22:00 PM 58.0433 -31.2627 93° East  Level FlightAware Approximate
Mon 04:23:00 PM 58.0352 -30.9951 93° East  Level FlightAware Approximate
Mon 04:24:00 PM 58.0265 -30.7276 93° East  Level FlightAware Approximate
Mon 04:25:00 PM 58.0173 -30.4602 94° East  Level FlightAware Approximate
Mon 04:26:00 PM 58.0074 -30.1930 94° East  Level FlightAware Approximate
Mon 04:27:00 PM 58.0029 -29.9259 86° East  Level FlightAware Approximate
Mon 04:28:00 PM 58.0130 -29.6588 86° East  Level FlightAware Approximate
Mon 04:29:00 PM 58.0225 -29.3915 86° East  Level FlightAware Approximate
Mon 04:30:00 PM 58.0314 -29.1240 86° East  Level FlightAware Approximate
Mon 04:31:00 PM 58.0398 -28.8564 86° East  Level FlightAware Approximate
Mon 04:32:00 PM 58.0476 -28.5888 87° East  Level FlightAware Approximate
Mon 04:33:00 PM 58.0549 -28.3210 87° East  Level FlightAware Approximate
Mon 04:34:00 PM 58.0616 -28.0531 87° East  Level FlightAware Approximate
Mon 04:35:00 PM 58.0677 -27.7851 87° East  Level FlightAware Approximate
Mon 04:36:00 PM 58.0733 -27.5170 88° East  Level FlightAware Approximate
Mon 04:37:00 PM 58.0783 -27.2488 88° East  Level FlightAware Approximate
Mon 04:38:00 PM 58.0827 -26.9806 88° East  Level FlightAware Approximate
Mon 04:39:00 PM 58.0866 -26.7123 88° East  Level FlightAware Approximate
Mon 04:40:00 PM 58.0899 -26.4439 89° East  Level FlightAware Approximate
Mon 04:41:00 PM 58.0927 -26.1755 89° East  Level FlightAware Approximate
Mon 04:42:00 PM 58.0949 -25.9071 89° East  Level FlightAware Approximate
Mon 04:43:00 PM 58.0965 -25.6386 89° East  Level FlightAware Approximate
Mon 04:44:00 PM 58.0975 -25.3701 89° East  Level FlightAware Approximate
Mon 04:45:00 PM 58.0980 -25.1016 90° East  Level FlightAware Approximate
Mon 04:46:00 PM 58.0980 -24.8331 90° East  Level FlightAware Approximate
Mon 04:47:00 PM 58.0973 -24.5646 90° East  Level FlightAware Approximate
Mon 04:48:00 PM 58.0961 -24.2962 90° East  Level FlightAware Approximate
Mon 04:49:00 PM 58.0944 -24.0277 91° East  Level FlightAware Approximate
Mon 04:50:00 PM 58.0921 -23.7593 91° East  Level FlightAware Approximate
Mon 04:51:00 PM 58.0892 -23.4909 91° East  Level FlightAware Approximate
Mon 04:52:00 PM 58.0857 -23.2225 91° East  Level FlightAware Approximate
Mon 04:53:00 PM 58.0817 -22.9542 92° East  Level FlightAware Approximate
Mon 04:54:00 PM 58.0771 -22.6860 92° East  Level FlightAware Approximate
Mon 04:55:00 PM 58.0720 -22.4179 92° East  Level FlightAware Approximate
Mon 04:56:00 PM 58.0663 -22.1498 92° East  Level FlightAware Approximate
Mon 04:57:00 PM 58.0600 -21.8818 92° East  Level FlightAware Approximate
Mon 04:58:00 PM 58.0532 -21.6139 93° East  Level FlightAware Approximate
Mon 04:59:00 PM 58.0458 -21.3462 93° East  Level FlightAware Approximate
Mon 05:00:00 PM 58.0378 -21.0785 93° East  Level FlightAware Approximate
Mon 05:01:00 PM 58.0293 -20.8110 93° East  Level FlightAware Approximate
Mon 05:02:00 PM 58.0202 -20.5436 94° East  Level FlightAware Approximate
Mon 05:03:00 PM 58.0106 -20.2763 94° East  Level FlightAware Approximate
Mon 05:04:00 PM 58.0004 -20.0092 94° East  Level FlightAware Approximate
Mon 05:05:00 PM 57.9844 -19.7432 96° East  Level FlightAware Approximate
Mon 05:06:00 PM 57.9678 -19.4775 97° East  Level FlightAware Approximate
Mon 05:07:00 PM 57.9505 -19.2120 97° East  Level FlightAware Approximate
Mon 05:08:00 PM 57.9328 -18.9468 97° East  Level FlightAware Approximate
Mon 05:09:00 PM 57.9144 -18.6818 97° East  Level FlightAware Approximate
Mon 05:10:00 PM 57.8955 -18.4171 98° East  Level FlightAware Approximate
Mon 05:11:00 PM 57.8761 -18.1527 98° East  Level FlightAware Approximate
Mon 05:12:00 PM 57.8561 -17.8886 98° East  Level FlightAware Approximate
Mon 05:13:00 PM 57.8356 -17.6248 98° East  Level FlightAware Approximate
Mon 05:14:00 PM 57.8145 -17.3613 98° East  Level FlightAware Approximate
Mon 05:15:00 PM 57.7929 -17.0981 99° East  Level FlightAware Approximate
Mon 05:16:00 PM 57.7707 -16.8352 99° East  Level FlightAware Approximate
Mon 05:17:00 PM 57.7480 -16.5726 99° East  Level FlightAware Approximate
Mon 05:18:00 PM 57.7248 -16.3104 99° East  Level FlightAware Approximate
Mon 05:19:00 PM 57.7010 -16.0485 100° East  Level FlightAware Approximate
Mon 05:20:00 PM 57.6767 -15.7870 100° East  Level FlightAware Approximate
Mon 05:21:00 PM 57.6518 -15.5258 100° East  Level FlightAware Approximate
Mon 05:22:00 PM 57.6264 -15.2650 100° East  Level FlightAware Approximate
Mon 05:23:00 PM 57.6004 -15.0046 100° East  Level FlightAware Approximate
Mon 05:24:00 PM 57.5740 -14.7445 101° East  Level FlightAware Approximate
Mon 05:25:00 PM 57.5470 -14.4848 101° East  Level FlightAware Approximate
Mon 05:26:00 PM 57.5194 -14.2255 101° East  Level FlightAware Approximate
Mon 05:27:00 PM 57.4911 -13.9667 101° East  Level FlightAware Approximate
Mon 05:28:00 PM 57.4622 -13.7083 102° East  Level FlightAware Approximate
Mon 05:29:00 PM 57.4328 -13.4503 102° East  Level FlightAware Approximate
Mon 05:30:00 PM 57.4029 -13.1928 102° East  Level FlightAware Approximate
Mon 05:31:00 PM 57.3724 -12.9356 102° East  Level FlightAware Approximate
Mon 05:32:00 PM 57.3414 -12.6789 103° East  Level FlightAware Approximate
Mon 05:33:00 PM 57.3099 -12.4226 103° East  Level FlightAware Approximate
Mon 05:34:00 PM 57.2779 -12.1668 103° East  Level FlightAware Approximate
Mon 05:35:00 PM 57.2454 -11.9114 103° East  Level FlightAware Approximate
Mon 05:36:00 PM 57.2123 -11.6565 103° East  Level FlightAware Approximate
Mon 05:36:07 PM 56.9723 -9.8125 105° East 525 604 39,600  Level FlightAware ADS-B
Mon 05:37:00 PM 57.1787 -11.4020 104° East  Level FlightAware Approximate
Mon 05:37:49 PM 56.8949 -9.3813 110° East 521 600 40,900  Level FlightAware ADS-B
Mon 05:38:32 PM 56.8604 -9.2071 110° East 521 600 41,000 73 Climbing FlightAware ADS-B
Mon 05:39:11 PM 56.8280 -9.0449 110° East 520 598 41,000  Level FlightAware ADS-B
Mon 05:39:45 PM 56.8001 -8.9060 110° East 521 600 41,000  Level FlightAware ADS-B
Mon 05:40:26 PM 56.7659 -8.7368 110° East 521 600 41,000  Level FlightAware ADS-B
Mon 05:40:59 PM 56.7387 -8.6038 110° East 519 597 41,000  Level FlightAware ADS-B
Mon 05:41:39 PM 56.7046 -8.4383 110° East 518 596 41,000  Level FlightAware ADS-B
Mon 05:42:19 PM 56.6709 -8.2756 110° East 519 597 41,000  Level FlightAware ADS-B
Mon 05:42:52 PM 56.6423 -8.1394 110° East 519 597 41,000  Level FlightAware ADS-B
Mon 05:43:32 PM 56.6082 -7.9771 110° East 520 598 41,000  Level FlightAware ADS-B
Mon 05:44:02 PM 56.5852 -7.8688 111° Southeast 522 601 41,000  Level FlightAware ADS-B (EGPH / EDI)
Mon 05:44:24 PM 56.5632 -7.7654 110° East 520 598 41,000  Level FlightAware ADS-B (KLEX)
Mon 05:44:57 PM 56.5345 -7.6322 110° East 519 597 41,000  Level FlightAware ADS-B
Mon 05:45:30 PM 56.5117 -7.5261 111° Southeast 520 598 41,000  Level FlightAware ADS-B (EGPH / EDI)
Mon 05:46:09 PM 56.4846 -7.4010 111° Southeast 520 598 41,000  Level FlightAware ADS-B (EGPH / EDI)
Mon 05:46:50 PM 56.4356 -7.1772 112° Southeast 520 598 41,000  Level FlightAware ADS-B
Mon 05:47:24 PM 56.4049 -7.0383 112° Southeast 519 597 41,000  Level FlightAware ADS-B (EGPH / EDI)
Mon 05:47:57 PM 56.3753 -6.9047 112° Southeast 517 595 41,000  Level FlightAware ADS-B
Mon 05:48:34 PM 56.3441 -6.7655 112° Southeast 516 594 41,000  Level FlightAware ADS-B
Mon 05:49:06 PM 56.3159 -6.6399 112° Southeast 517 595 41,000  Level FlightAware ADS-B (EGPH / EDI)
Mon 05:49:47 PM 56.2790 -6.4770 112° Southeast 518 596 41,000  Level FlightAware ADS-B
Mon 05:50:20 PM 56.2511 -6.3549 112° Southeast 518 596 41,000  Level FlightAware ADS-B (EGPH / EDI)
Mon 05:50:50 PM 56.2204 -6.2209 112° Southeast 517 595 41,000  Level FlightAware ADS-B (KLEX)
Mon 05:51:21 PM 56.1931 -6.1024 113° Southeast 516 594 41,000  Level FlightAware ADS-B
Mon 05:51:53 PM 56.1626 -5.9712 113° Southeast 515 593 41,000  Level FlightAware ADS-B (EGPH / EDI)
Mon 05:52:26 PM 56.1333 -5.8460 113° Southeast 512 589 41,000  Level FlightAware ADS-B
Mon 05:53:01 PM 56.1020 -5.7123 113° Southeast 506 582 41,000  Level FlightAware ADS-B
Mon 05:53:31 PM 56.0736 -5.5925 113° Southeast 506 582 41,000  Level FlightAware ADS-B (KLEX)
Mon 05:54:00 PM 56.0469 -5.4804 112° Southeast 504 580 41,000  Level FlightAware ADS-B
Mon 05:54:19 PM 56.0295 -5.4074 112° Southeast 504 580 41,000  Level FlightAware ADS-B
Mon 05:54:46 PM 56.0050 -5.3046 112° Southeast 503 579 41,000  Level FlightAware ADS-B
Mon 05:55:06 PM 55.9866 -5.2283 112° Southeast 501 577 41,000  Level FlightAware ADS-B
Mon 05:55:40 PM 55.9549 -5.0971 112° Southeast 504 580 41,000  Level FlightAware UK
Mon 05:55:42 PM 55.9533 -5.0908 113° Southeast 503 579 41,000  Level FlightAware ADS-B
Mon 05:56:23 PM 55.9171 -4.9419 114° Southeast 504 580 41,000  Level FlightAware ADS-B
Mon 05:56:26 PM 55.9119 -4.9207 114° Southeast 504 580 41,000  Level FlightAware ADS-B
Mon 05:57:09 PM 55.8786 -4.7851 114° Southeast 504 580 41,000  Level FlightAware ADS-B (EGPH / EDI)
Mon 05:57:41 PM 55.8432 -4.6423 114° Southeast 504 580 41,000  Level FlightAware UK
Mon 05:57:43 PM 55.8433 -4.6422 114° Southeast 504 580 41,000  Level FlightAware ADS-B
Mon 05:58:03 PM 55.8225 -4.5584 113° Southeast 500 575 41,000  Level FlightAware ADS-B (KFUL)
Mon 05:58:37 PM 55.7905 -4.4296 113° Southeast 500 575 41,000  Level FlightAware ADS-B
Mon 05:59:11 PM 55.7585 -4.3027 113° Southeast 502 578 41,000  Level FlightAware UK
Mon 05:59:12 PM 55.7580 -4.3004 114° Southeast 503 579 41,000  Level FlightAware ADS-B (EGPH / EDI)
Mon 05:59:43 PM 55.7295 -4.1870 114° Southeast 503 579 41,000  Level FlightAware ADS-B
Mon 06:00:15 PM 55.6998 -4.0701 114° Southeast 503 579 41,000  Level FlightAware ADS-B (EGPH / EDI)
Mon 06:00:32 PM 55.6820 -4.0005 113° Southeast 499 574 41,000  Level FlightAware ADS-B (EGPD / ABZ)
Mon 06:01:02 PM 55.6536 -3.8892 114° Southeast 503 579 41,000  Level FlightAware ADS-B
Mon 06:01:33 PM 55.6271 -3.7862 114° Southeast 503 579 41,000  Level FlightAware ADS-B
Mon 06:02:03 PM 55.5972 -3.6699 115° Southeast 503 579 41,000  Level FlightAware ADS-B
Mon 06:02:33 PM 55.5656 -3.5482 115° Southeast 505 581 41,000  Level FlightAware ADS-B
Mon 06:03:03 PM 55.5367 -3.4376 115° Southeast 507 583 41,000  Level FlightAware ADS-B
Mon 06:03:33 PM 55.5070 -3.3241 115° Southeast 506 582 41,000  Level FlightAware ADS-B
Mon 06:04:11 PM 55.4707 -3.1863 115° Southeast 506 582 41,000  Level FlightAware ADS-B (EGNT / NCL)
Mon 06:04:42 PM 55.4425 -3.0800 115° Southeast 506 582 41,000  Level FlightAware ADS-B
Mon 06:05:10 PM 55.4259 -3.0174 115° Southeast 506 582 41,000  Level FlightAware ADS-B (EGNT / NCL)
Mon 06:05:28 PM 55.3945 -2.9001 114° Southeast 503 579 41,000  Level FlightAware ADS-B
Mon 06:05:58 PM 55.3634 -2.7843 115° Southeast 506 582 41,000  Level FlightAware ADS-B
Mon 06:06:29 PM 55.3337 -2.6740 115° Southeast 501 577 41,000  Level FlightAware ADS-B
Mon 06:06:59 PM 55.3031 -2.5612 115° Southeast 501 577 41,000  Level FlightAware ADS-B
Mon 06:07:29 PM 55.2724 -2.4484 115° Southeast 502 578 41,000  Level FlightAware ADS-B
Mon 06:07:51 PM 55.2500 -2.3669 115° Southeast 501 577 41,000  Level FlightAware ADS-B
Mon 06:07:55 PM 55.2462 -2.3528 115° Southeast 500 575 41,000  Level FlightAware ADS-B
Mon 06:08:29 PM 55.2144 -2.2372 116° Southeast 503 579 41,000  Level FlightAware ADS-B (EGNT / NCL)
Mon 06:08:44 PM 55.1969 -2.1736 115° Southeast 499 574 41,000  Level FlightAware ADS-B
Mon 06:08:59 PM 55.1815 -2.1181 115° Southeast 499 574 41,000  Level FlightAware ADS-B
Mon 06:09:17 PM 55.1642 -2.0554 115° Southeast 498 573 41,000  Level FlightAware ADS-B
Mon 06:09:37 PM 55.1429 -1.9792 115° Southeast 497 572 41,000  Level FlightAware ADS-B (KLEX)
Mon 06:10:08 PM 55.1120 -1.8686 116° Southeast 499 574 41,000  Level FlightAware ADS-B
Mon 06:10:18 PM 55.1019 -1.8326 115° Southeast 495 570 41,000  Level FlightAware ADS-B (KLEX)
Mon 06:10:26 PM 55.0954 -1.8096 115° Southeast 495 570 41,000  Level FlightAware ADS-B
Mon 06:10:38 PM 55.0815 -1.7599 115° Southeast 494 568 41,000  Level FlightAware ADS-B (KEGE)
Mon 06:10:47 PM 55.0730 -1.7298 115° Southeast 494 568 41,000  Level FlightAware ADS-B
Mon 06:10:50 PM 55.0698 -1.7183 115° Southeast 494 568 41,000  Level FlightAware ADS-B (KLEX)
Mon 06:11:19 PM 55.0400 -1.6130 115° Southeast 494 568 41,000  Level FlightAware ADS-B (KEGE)
Mon 06:11:30 PM 55.0286 -1.5729 115° Southeast 494 568 41,000  Level FlightAware ADS-B (KLEX)
Mon 06:12:00 PM 55.0097 -1.5063 116° Southeast 496 571 41,000  Level FlightAware ADS-B
Mon 06:12:30 PM 54.9810 -1.4058 117° Southeast 495 570 41,000  Level FlightAware ADS-B (EGNT / NCL)
Mon 06:13:01 PM 54.9371 -1.2528 117° Southeast 492 566 41,000  Level FlightAware ADS-B (EGNT / NCL)
Mon 06:13:16 PM 54.9214 -1.1979 116° Southeast 490 564 41,000  Level FlightAware ADS-B (EGLF / FAB)
Mon 06:13:49 PM 54.8878 -1.0821 116° Southeast 484 557 41,000  Level FlightAware ADS-B (KLEX)
Mon 06:14:36 PM 54.8400 -0.9179 116° Southeast 486 559 41,000  Level FlightAware UK
Mon 06:14:42 PM 54.8359 -0.9035 117° Southeast 487 560 41,000  Level FlightAware ADS-B (EGNT / NCL)
Mon 06:14:51 PM 54.8259 -0.8695 116° Southeast 484 557 41,000  Level FlightAware ADS-B
Mon 06:15:02 PM 54.8142 -0.8291 116° Southeast 484 557 41,000  Level FlightAware ADS-B (KLEX)
Mon 06:15:09 PM 54.8066 -0.8035 116° Southeast 484 557 41,000  Level FlightAware ADS-B
Mon 06:15:21 PM 54.7946 -0.7625 116° Southeast 484 557 41,000  Level FlightAware ADS-B (KADS)
Mon 06:15:25 PM 54.7906 -0.7487 116° Southeast 484 557 41,000  Level FlightAware ADS-B (KEGE)
Mon 06:15:52 PM 54.7629 -0.6548 116° Southeast 482 555 41,000  Level FlightAware ADS-B
Mon 06:16:11 PM 54.7446 -0.5927 116° Southeast 483 556 41,000  Level FlightAware ADS-B
Mon 06:16:14 PM 54.7407 -0.5795 116° Southeast 483 556 41,000  Level FlightAware ADS-B (KLEX)
Mon 06:16:34 PM 54.7228 -0.5189 117° Southeast 486 559 41,000  Level FlightAware ADS-B (EGPH / EDI)
Mon 06:17:11 PM 54.6962 -0.4298 117° Southeast 489 563 41,000  Level FlightAware ADS-B
Mon 06:17:42 PM 54.6496 -0.2744 117° Southeast 488 562 41,000  Level FlightAware UK
Mon 06:18:03 PM 54.6291 -0.2058 117° Southeast 489 563 41,000  Level FlightAware ADS-B
Mon 06:18:20 PM 54.6123 -0.1499 118° Southeast 489 563 41,000  Level FlightAware ADS-B
Mon 06:18:52 PM 54.5791 -0.0399 117° Southeast 491 565 41,000  Level FlightAware ADS-B (EGNT / NCL)
Mon 06:18:55 PM 54.5741 -0.0234 117° Southeast 491 565 41,000  Level FlightAware ADS-B (KEGE)
Mon 06:19:30 PM 54.5370 0.0985 118° Southeast 488 562 41,000  Level FlightAware ADS-B (EGNT / NCL)
Mon 06:20:02 PM 54.5101 0.1867 118° Southeast 486 559 41,000  Level FlightAware ADS-B (EGNT / NCL)
Mon 06:20:32 PM 54.4740 0.3046 118° Southeast 486 559 41,000  Level FlightAware ADS-B (EGNT / NCL)
Mon 06:21:04 PM 54.4391 0.4181 118° Southeast 485 558 41,000  Level FlightAware ADS-B (EGLF / FAB)
Mon 06:21:36 PM 54.4061 0.5248 118° Southeast 488 562 41,000  Level FlightAware ADS-B (EGLF / FAB)
Mon 06:22:12 PM 54.3682 0.6459 118° Southeast 482 555 41,000  Level FlightAware ADS-B (EGNT / NCL)
Mon 06:22:51 PM 54.3267 0.7792 118° Southeast 480 552 41,000  Level FlightAware ADS-B (EGNT / NCL)
Mon 06:23:25 PM 54.2906 0.8939 118° Southeast 480 552 41,000  Level FlightAware UK
Mon 06:23:26 PM 54.2901 0.8958 118° Southeast 479 551 41,000  Level FlightAware ADS-B (EGNT / NCL)
Mon 06:24:06 PM 54.2481 1.0287 118° Southeast 480 552 41,000  Level FlightAware ADS-B (EGLF / FAB)
Mon 06:24:13 PM 54.2414 1.0499 118° Southeast 480 552 41,000  Level FlightAware ADS-B (KADS)
Mon 06:24:46 PM 54.2059 1.1616 118° Southeast 480 552 41,000  Level FlightAware ADS-B (EGLF / FAB)
Mon 06:25:16 PM 54.1748 1.2591 119° Southeast 481 554 41,000  Level FlightAware ADS-B (EGLF / FAB)
Mon 06:25:30 PM 54.1599 1.3056 118° Southeast 477 549 41,000  Level FlightAware ADS-B
Mon 06:26:02 PM 54.1257 1.4116 118° Southeast 482 555 41,000  Level FlightAware UK
Mon 06:26:06 PM 54.1209 1.4269 119° Southeast 482 555 41,000  Level FlightAware ADS-B (EGLF / FAB)
Mon 06:26:36 PM 54.0897 1.5237 119° Southeast 482 555 41,000  Level FlightAware ADS-B (EGLF / FAB)
Mon 06:26:41 PM 54.0833 1.5436 118° Southeast 478 550 41,000  Level FlightAware ADS-B
Mon 06:27:21 PM 54.0410 1.6738 118° Southeast 481 554 41,000  Level FlightAware ADS-B
Mon 06:27:41 PM 54.0187 1.7423 118° Southeast 481 554 41,000  Level FlightAware ADS-B
Mon 06:28:26 PM 53.9699 1.8915 119° Southeast 485 558 41,000  Level FlightAware ADS-B (EGLF / FAB)
Mon 06:28:47 PM 53.9474 1.9596 118° Southeast 481 554 41,000  Level FlightAware ADS-B
Mon 06:29:26 PM 53.9076 2.0802 119° Southeast 486 559 41,000  Level FlightAware ADS-B (EGLF / FAB)
Mon 06:29:36 PM 53.8941 2.1212 118° Southeast 481 554 41,000  Level FlightAware ADS-B
Mon 06:30:08 PM 53.8580 2.2296 118° Southeast 486 559 41,000  Level FlightAware UK
Mon 06:30:26 PM 53.8387 2.2878 119° Southeast 486 559 41,000  Level FlightAware ADS-B (EGLF / FAB)
Mon 06:30:57 PM 53.8045 2.3899 120° Southeast 485 558 41,000  Level FlightAware ADS-B
Mon 06:31:36 PM 53.7661 2.5043 120° Southeast 486 559 41,000  Level FlightAware ADS-B (EGLF / FAB)
Mon 06:32:06 PM 53.7580 2.5286 120° Southeast 486 559 41,000  Level FlightAware ADS-B
Mon 06:32:38 PM 53.6920 2.7228 120° Southeast 488 562 41,000  Level FlightAware UK
Mon 06:32:43 PM 53.6860 2.7363 120° Southeast 486 559 41,000  Level FlightAware ADS-B
Mon 06:32:59 PM 53.6655 2.7856 127° Southeast 491 565 41,000  Level FlightAware ADS-B
Mon 06:33:06 PM 53.6570 2.8044 129° Southeast 488 562 41,000  Level FlightAware ADS-B
Mon 06:33:39 PM 53.6076 2.9045 129° Southeast 494 568 41,000  Level FlightAware UK
Mon 06:33:47 PM 53.5959 2.9291 130° Southeast 493 567 41,000  Level FlightAware ADS-B
Mon 06:34:20 PM 53.5599 3.0021 130° Southeast 494 568 41,000  Level FlightAware ADS-B (EGLC / LCY)
Mon 06:34:30 PM 53.5340 3.0545 129° Southeast 489 563 41,000  Level FlightAware ADS-B
Mon 06:34:39 PM 53.5197 3.0833 129° Southeast 489 563 41,000  Level FlightAware ADS-B
Mon 06:35:09 PM 53.4768 3.1699 129° Southeast 494 568 41,000  Level FlightAware UK
Mon 06:35:12 PM 53.4745 3.1746 130° Southeast 494 568 41,000  Level FlightAware ADS-B
Mon 06:35:20 PM 53.4602 3.2032 129° Southeast 488 562 41,000  Level FlightAware ADS-B
Mon 06:35:29 PM 53.4477 3.2283 129° Southeast 486 559 41,000  Level FlightAware ADS-B
Mon 06:35:42 PM 53.4284 3.2666 129° Southeast 486 559 41,000  Level FlightAware ADS-B
Mon 06:36:12 PM 53.3844 3.3545 130° Southeast 491 565 41,000  Level FlightAware ADS-B
Mon 06:36:42 PM 53.3409 3.4412 129° Southeast 488 562 41,000  Level FlightAware ADS-B
Mon 06:37:12 PM 53.2966 3.5292 129° Southeast 489 563 41,000  Level FlightAware ADS-B
Mon 06:37:44 PM 53.2511 3.6190 130° Southeast 497 572 41,000  Level FlightAware ADS-B
Mon 06:38:16 PM 53.2027 3.7144 130° Southeast 500 575 41,000  Level FlightAware ADS-B (LRBS / BBU)
Mon 06:38:53 PM 53.1503 3.8169 130° Southeast 500 575 41,000  Level FlightAware ADS-B
Mon 06:39:24 PM 53.1249 3.8666 130° Southeast 501 577 41,000  Level FlightAware ADS-B
Mon 06:39:56 PM 53.0577 3.9976 131° Southeast 502 578 41,000  Level FlightAware ADS-B (LRBS / BBU)
Mon 06:40:26 PM 53.0072 4.0958 131° Southeast 501 577 41,000  Level FlightAware ADS-B (EGLF / FAB)
Mon 06:40:56 PM 52.9734 4.1610 131° Southeast 501 577 41,000  Level FlightAware ADS-B (LRBS / BBU)
Mon 06:41:26 PM 52.9181 4.2678 131° Southeast 501 577 41,000  Level FlightAware ADS-B (EGLF / FAB)
Mon 06:41:31 PM 52.9093 4.2847 130° Southeast 496 571 41,000  Level FlightAware ADS-B
Mon 06:42:02 PM 52.8630 4.3736 130° Southeast 499 574 41,000  Level FlightAware ADS-B
Mon 06:42:35 PM 52.8116 4.4717 131° Southeast 504 580 41,000  Level FlightAware ADS-B (EGLF / FAB)
Mon 06:42:38 PM 52.8116 4.4717 131° Southeast 503 579 41,000  Level FlightAware ADS-B (EGLF / FAB)
Mon 06:42:53 PM 52.7909 4.5111 131° Southeast 503 579 41,000  Level FlightAware ADS-B
Mon 06:43:27 PM 52.7358 4.6155 131° Southeast 502 578 41,000  Level FlightAware ADS-B (EGLF / FAB)
Mon 06:43:58 PM 52.6899 4.7023 131° Southeast 501 577 41,000  Level FlightAware ADS-B
Mon 06:44:35 PM 52.6306 4.8145 131° Southeast 498 573 41,000  Level FlightAware ADS-B
Mon 06:45:06 PM 52.5938 4.8835 131° Southeast 493 567 41,000  Level FlightAware ADS-B
Mon 06:45:36 PM 52.5420 4.9803 131° Southeast 491 565 41,000  Level FlightAware ADS-B
Mon 06:46:06 PM 52.4932 5.0712 131° Southeast 491 565 41,000  Level FlightAware ADS-B
Mon 06:46:39 PM 52.4531 5.1457 131° Southeast 489 563 41,000  Level FlightAware ADS-B
Mon 06:47:10 PM 52.4095 5.2266 131° Southeast 490 564 41,000  Level FlightAware ADS-B
Mon 06:47:43 PM 52.3499 5.3368 132° Southeast 490 564 41,000  Level FlightAware ADS-B
Mon 06:48:15 PM 52.2971 5.4267 132° Southeast 492 566 41,000  Level FlightAware UK
Mon 06:48:19 PM 52.3154 5.4002 132° Southeast 492 566 41,000  Level FlightAware ADS-B
Mon 06:48:49 PM 52.2610 5.4997 132° Southeast 494 568 41,000  Level FlightAware ADS-B
Mon 06:49:22 PM 52.2243 5.5669 132° Southeast 496 571 41,000  Level FlightAware ADS-B
Mon 06:49:58 PM 52.1483 5.7053 132° Southeast 497 572 41,000  Level FlightAware ADS-B
Mon 06:50:28 PM 52.0982 5.7961 132° Southeast 496 571 41,000  Level FlightAware ADS-B
Mon 06:51:01 PM 52.0481 5.8866 132° Southeast 494 568 41,000  Level FlightAware ADS-B
Mon 06:51:33 PM 52.0001 5.9727 132° Southeast 493 567 41,000  Level FlightAware ADS-B
Mon 06:52:03 PM 51.9577 6.0487 132° Southeast 493 567 41,000  Level FlightAware ADS-B
Mon 06:52:35 PM 51.9256 6.1061 132° Southeast 496 571 41,000  Level FlightAware ADS-B
Mon 06:53:05 PM 51.8583 6.2260 132° Southeast 496 571 41,000  Level FlightAware ADS-B
Mon 06:53:35 PM 51.8269 6.2818 132° Southeast 496 571 41,000  Level FlightAware ADS-B
Mon 06:54:10 PM 51.7574 6.4047 132° Southeast 497 572 41,000  Level FlightAware ADS-B
Mon 06:54:41 PM 51.7267 6.4588 132° Southeast 500 575 41,000  Level FlightAware ADS-B
Mon 06:55:13 PM 51.6600 6.5760 133° Southeast 502 578 41,000  Level FlightAware ADS-B
Mon 06:55:36 PM 51.6246 6.6380 133° Southeast 502 578 41,000  Level FlightAware ADS-B (LRBS / BBU)
Mon 06:56:11 PM 51.5695 6.7341 133° Southeast 500 575 41,000  Level FlightAware ADS-B
Mon 06:56:44 PM 51.5174 6.8243 133° Southeast 500 575 41,000  Level FlightAware ADS-B
Mon 06:57:14 PM 51.4710 6.9047 133° Southeast 500 575 41,000  Level FlightAware ADS-B
Mon 06:57:45 PM 51.4278 6.9794 133° Southeast 499 574 41,000  Level FlightAware ADS-B
Mon 06:58:15 PM 51.3757 7.0689 133° Southeast 499 574 41,000  Level FlightAware ADS-B
Mon 06:58:45 PM 51.3287 7.1496 133° Southeast 499 574 41,000  Level FlightAware ADS-B
Mon 06:59:16 PM 51.2811 7.2312 133° Southeast 498 573 41,000  Level FlightAware ADS-B
Mon 06:59:46 PM 51.2328 7.3135 133° Southeast 497 572 41,000  Level FlightAware ADS-B
Mon 07:00:25 PM 51.1711 7.4181 133° Southeast 495 570 41,000  Level FlightAware ADS-B
Mon 07:00:56 PM 51.1268 7.4933 133° Southeast 494 568 41,000  Level FlightAware ADS-B
Mon 07:01:15 PM 51.0924 7.5531 130° Southeast 492 566 41,000  Level FlightAware ADS-B
Mon 07:01:46 PM 51.0559 7.6290 125° Southeast 489 563 41,000  Level FlightAware ADS-B
Mon 07:01:55 PM 51.0394 7.6691 123° Southeast 487 560 41,000  Level FlightAware ADS-B
Mon 07:02:25 PM 51.0047 7.7564 122° Southeast 487 560 41,000  Level FlightAware ADS-B
Mon 07:02:56 PM 50.9956 7.7793 123° Southeast 486 559 41,000  Level FlightAware ADS-B
Mon 07:03:26 PM 50.9956 7.7793 123° Southeast 483 556 41,000  Level FlightAware ADS-B
Mon 07:04:17 PM 50.8915 8.0380 123° Southeast 480 552 41,000  Level FlightAware ADS-B
Mon 07:04:50 PM 50.8311 8.1869 123° Southeast 478 550 41,000  Level FlightAware ADS-B
Mon 07:05:20 PM 50.7958 8.2735 123° Southeast 477 549 41,000  Level FlightAware ADS-B
Mon 07:05:50 PM 50.7646 8.3500 123° Southeast 477 549 41,000  Level FlightAware ADS-B
Mon 07:06:26 PM 50.7236 8.4502 123° Southeast 477 549 41,000  Level FlightAware ADS-B
Mon 07:07:00 PM 50.6839 8.5465 123° Southeast 474 545 41,000  Level FlightAware ADS-B (EDDM / MUC)
Mon 07:07:35 PM 50.6333 8.6690 123° Southeast 474 545 41,000  Level FlightAware ADS-B (EDDM / MUC)
Mon 07:08:14 PM 50.6098 8.7256 123° Southeast 476 548 41,000  Level FlightAware ADS-B (EDDM / MUC)
Mon 07:09:13 PM 50.6808 8.5540 123° Southeast 474 545 41,000  Level FlightAware ADS-B
Mon 07:11:20 PM 50.3630 9.3137 124° Southeast 474 545 41,000  Level FlightAware ADS-B (ETSE)
Mon 07:12:00 PM 50.3144 9.4281 124° Southeast 475 547 41,000  Level FlightAware ADS-B (ETSE)
Mon 07:12:30 PM 50.2782 9.5130 124° Southeast 475 547 41,000  Level FlightAware ADS-B (ETSE)
Mon 07:13:00 PM 50.2438 9.5932 124° Southeast 476 548 41,000  Level FlightAware ADS-B (ETSE)
Mon 07:13:30 PM 50.2046 9.6842 124° Southeast 477 549 41,000  Level FlightAware ADS-B (ETSE)
Mon 07:14:01 PM 50.1668 9.7721 124° Southeast 479 551 41,000  Level FlightAware ADS-B (ETSE)
Mon 07:14:31 PM 50.1290 9.8594 124° Southeast 479 551 41,000  Level FlightAware ADS-B (ETSE)
Mon 07:15:01 PM 50.0956 9.9365 124° Southeast 480 552 41,000  Level FlightAware ADS-B (EDDM / MUC)
Mon 07:15:31 PM 50.0548 10.0302 124° Southeast 481 554 41,000  Level FlightAware ADS-B (ETSE)
Mon 07:16:01 PM 50.0262 10.0959 124° Southeast 482 555 41,000  Level FlightAware ADS-B (ETSE)
Mon 07:16:31 PM 49.9804 10.2002 124° Southeast 482 555 41,000  Level FlightAware ADS-B (ETSE)
Mon 07:17:09 PM 49.9337 10.3064 124° Southeast 480 552 41,000  Level FlightAware ADS-B (ETSE)
Mon 07:17:40 PM 49.8999 10.3829 124° Southeast 480 552 41,000  Level FlightAware ADS-B (ETSE)
Mon 07:18:10 PM 49.8569 10.4802 125° Southeast 480 552 41,000  Level FlightAware ADS-B (ETSE)
Mon 07:18:44 PM 49.8131 10.5786 125° Southeast 482 555 41,000  Level FlightAware ADS-B (ETSE)
Mon 07:18:56 PM 49.7983 10.6120 125° Southeast 482 555 41,000  Level FlightAware ADS-B (EDDM / MUC)
Mon 07:19:26 PM 49.7610 10.6955 125° Southeast 481 554 41,000  Level FlightAware ADS-B (ETSE)
Mon 07:19:56 PM 49.7261 10.7731 125° Southeast 480 552 41,000  Level FlightAware ADS-B (ETSE)
Mon 07:20:26 PM 49.6875 10.8591 125° Southeast 480 552 41,000  Level FlightAware ADS-B (ETSE)
Mon 07:21:05 PM 49.6429 10.9580 125° Southeast 482 555 41,000  Level FlightAware ADS-B (ETSE)
Mon 07:21:35 PM 49.5974 11.0588 125° Southeast 483 556 41,000  Level FlightAware ADS-B (ETSE)
Mon 07:22:11 PM 49.5517 11.1594 125° Southeast 482 555 41,000  Level FlightAware ADS-B (EDDM / MUC)
Mon 07:22:41 PM 49.5144 11.2440 123° Southeast 479 551 41,000  Level FlightAware ADS-B (EDDM / MUC)
Mon 07:23:12 PM 49.4798 11.3357 118° Southeast 480 552 41,000  Level FlightAware ADS-B
Mon 07:23:42 PM 49.4484 11.4253 118° Southeast 479 551 41,000  Level FlightAware ADS-B (ETSE)
Mon 07:24:12 PM 49.4209 11.5028 119° Southeast 479 551 41,000  Level FlightAware ADS-B (EDDM / MUC)
Mon 07:24:35 PM 49.3981 11.5671 118° Southeast 479 551 41,000  Level FlightAware ADS-B (EDDM / MUC)
Mon 07:25:14 PM 49.3543 11.6899 119° Southeast 478 550 41,000  Level FlightAware ADS-B (EDDM / MUC)
Mon 07:25:44 PM 49.3191 11.7881 119° Southeast 477 549 41,000  Level FlightAware ADS-B (EDDM / MUC)
Mon 07:26:24 PM 49.2802 11.8967 119° Southeast 476 548 41,000  Level FlightAware ADS-B (ETSE)
Mon 07:26:54 PM 49.2482 11.9854 119° Southeast 475 547 41,000  Level FlightAware ADS-B (EDDM / MUC)
Mon 07:27:24 PM 49.2137 12.0809 119° Southeast 475 547 41,000  Level FlightAware ADS-B (ETSE)
Mon 07:27:54 PM 49.1831 12.1652 119° Southeast 475 547 41,000  Level FlightAware ADS-B (EDDM / MUC)
Mon 07:28:28 PM 49.1526 12.2488 119° Southeast 475 547 41,000  Level FlightAware ADS-B (ETSE)
Mon 07:28:58 PM 49.1227 12.3307 119° Southeast 476 548 41,000  Level FlightAware ADS-B (ETSE)
Mon 07:29:29 PM 49.0798 12.4476 119° Southeast 476 548 41,000  Level FlightAware ADS-B (EDDM / MUC)
Mon 07:30:03 PM 49.0440 12.5448 119° Southeast 479 551 41,000  Level FlightAware ADS-B (ETSE)
Mon 07:30:41 PM 49.0026 12.6573 119° Southeast 478 550 41,000  Level FlightAware ADS-B (EDDM / MUC)
Mon 07:31:17 PM 48.9645 12.7594 119° Southeast 479 551 41,000  Level FlightAware ADS-B (EDDM / MUC)
Mon 07:31:47 PM 48.9306 12.8506 120° Southeast 479 551 41,000  Level FlightAware ADS-B (EDDM / MUC)
Mon 07:32:18 PM 48.8993 12.9341 119° Southeast 480 552 41,000  Level FlightAware ADS-B (EDDM / MUC)
Mon 07:32:48 PM 48.8644 13.0274 120° Southeast 482 555 41,000  Level FlightAware ADS-B (EDDM / MUC)
Mon 07:33:19 PM 48.8325 13.1123 120° Southeast 481 554 41,000  Level FlightAware ADS-B (EDDM / MUC)
Mon 07:33:54 PM 48.7914 13.2208 120° Southeast 476 548 41,000  Level FlightAware ADS-B (EDDM / MUC)
Mon 07:34:25 PM 48.7574 13.3103 120° Southeast 479 551 41,000  Level FlightAware ADS-B (EDDM / MUC)
Mon 07:34:55 PM 48.7263 13.3922 120° Southeast 480 552 41,000  Level FlightAware ADS-B (EDDM / MUC)
Mon 07:35:26 PM 48.6900 13.4875 120° Southeast 481 554 41,000  Level FlightAware ADS-B (EDDM / MUC)
Mon 07:35:56 PM 48.6617 13.5612 120° Southeast 481 554 41,000  Level FlightAware ADS-B (EDDM / MUC)
Mon 07:36:26 PM 48.6297 13.6445 120° Southeast 479 551 41,000  Level FlightAware ADS-B (EDDM / MUC)
Mon 07:36:56 PM 48.5902 13.7470 120° Southeast 476 548 41,000  Level FlightAware ADS-B
Mon 07:37:13 PM 48.5714 13.7955 119° Southeast 469 540 41,000  Level FlightAware ADS-B
Mon 07:37:25 PM 48.5576 13.8312 120° Southeast 472 543 41,000  Level FlightAware ADS-B (EDDM / MUC)
Mon 07:37:45 PM 48.5354 13.8883 120° Southeast 470 541 41,000  Level FlightAware ADS-B (ETSE)
Mon 07:37:55 PM 48.5249 13.9154 119° Southeast 465 535 41,000  Level FlightAware ADS-B
Mon 07:38:25 PM 48.4931 13.9972 120° Southeast 466 536 41,000  Level FlightAware ADS-B (ETSE)
Mon 07:38:44 PM 48.4718 14.0518 120° Southeast 459 528 41,000  Level FlightAware ADS-B
Mon 07:38:51 PM 48.4645 14.0706 120° Southeast 458 527 41,000  Level FlightAware ADS-B
Mon 07:38:54 PM 48.4606 14.0805 120° Southeast 456 525 41,000  Level FlightAware ADS-B
Mon 07:39:01 PM 48.4537 14.0981 120° Southeast 455 524 41,000  Level FlightAware ADS-B
Mon 07:39:11 PM 48.4424 14.1270 121° Southeast 455 524 41,000  Level FlightAware ADS-B (EDDM / MUC)
Mon 07:39:14 PM 48.4396 14.1341 120° Southeast 451 519 41,000  Level FlightAware ADS-B
Mon 07:39:44 PM 48.4074 14.2161 121° Southeast 449 517 41,000  Level FlightAware ADS-B
Mon 07:40:14 PM 48.3760 14.2959 121° Southeast 448 516 41,000  Level FlightAware ADS-B
Mon 07:40:46 PM 48.3427 14.3802 121° Southeast 447 514 41,000  Level FlightAware ADS-B
Mon 07:41:16 PM 48.3109 14.4606 121° Southeast 447 514 41,000  Level FlightAware ADS-B
Mon 07:41:46 PM 48.2793 14.5402 120° Southeast 447 514 41,000  Level FlightAware ADS-B
Mon 07:41:53 PM 48.2716 14.5595 120° Southeast 448 516 41,000  Level FlightAware ADS-B
Mon 07:41:59 PM 48.2650 14.5762 121° Southeast 452 520 41,000  Level FlightAware ADS-B (EDDM / MUC)
Mon 07:42:02 PM 48.2614 14.5853 121° Southeast 453 521 41,000  Level FlightAware ADS-B (ETSE)
Mon 07:42:05 PM 48.2590 14.5912 120° Southeast 449 517 41,000  Level FlightAware ADS-B
Mon 07:42:14 PM 48.2485 14.6176 120° Southeast 451 519 41,000  Level FlightAware ADS-B
Mon 07:42:19 PM 48.2431 14.6311 120° Southeast 452 520 41,000  Level FlightAware ADS-B
Mon 07:42:30 PM 48.2309 14.6614 121° Southeast 457 526 41,000  Level FlightAware ADS-B (EDDM / MUC)
Mon 07:42:51 PM 48.2086 14.7174 120° Southeast 454 522 41,000  Level FlightAware ADS-B
Mon 07:43:01 PM 48.1995 14.7401 121° Southeast 457 526 41,000  Level FlightAware ADS-B (ETSE)
Mon 07:43:11 PM 48.1869 14.7715 121° Southeast 458 527 41,000  Level FlightAware ADS-B (EDDM / MUC)
Mon 07:43:32 PM 48.1644 14.8273 120° Southeast 454 522 41,000  Level FlightAware ADS-B
Mon 07:43:47 PM 48.1481 14.8679 121° Southeast 458 527 41,000  Level FlightAware ADS-B (ETSE)
Mon 07:43:56 PM 48.1376 14.8939 121° Southeast 458 527 41,000  Level FlightAware ADS-B (ETSE)
Mon 07:44:07 PM 48.1258 14.9230 120° Southeast 454 522 41,000  Level FlightAware ADS-B
Mon 07:44:15 PM 48.1169 14.9452 121° Southeast 458 527 41,000  Level FlightAware ADS-B (ETSE)
Mon 07:44:18 PM 48.1151 14.9495 121° Southeast 458 527 41,000  Level FlightAware ADS-B (EDDM / MUC)
Mon 07:44:29 PM 48.1022 14.9814 121° Southeast 458 527 41,000  Level FlightAware ADS-B (EDDM / MUC)
Mon 07:44:38 PM 48.0924 15.0057 120° Southeast 454 522 41,000  Level FlightAware ADS-B
Mon 07:44:46 PM 48.0835 15.0279 120° Southeast 454 522 41,000  Level FlightAware ADS-B
Mon 07:44:57 PM 48.0714 15.0576 121° Southeast 459 528 41,000  Level FlightAware ADS-B (ETSE)
Mon 07:45:05 PM 48.0624 15.0798 121° Southeast 459 528 41,000  Level FlightAware ADS-B (ETSE)
Mon 07:45:09 PM 48.0580 15.0906 120° Southeast 455 524 41,000  Level FlightAware ADS-B
Mon 07:45:20 PM 48.0492 15.1122 121° Southeast 459 528 41,000  Level FlightAware ADS-B (EDDM / MUC)
Mon 07:45:28 PM 48.0408 15.1328 121° Southeast 460 529 41,000  Level FlightAware ADS-B (ETSE)
Mon 07:45:58 PM 48.0039 15.2234 121° Southeast 461 531 41,000  Level FlightAware ADS-B
Mon 07:46:29 PM 47.9701 15.3060 121° Southeast 463 533 41,000  Level FlightAware ADS-B
Mon 07:46:59 PM 47.9367 15.3876 121° Southeast 464 534 41,000  Level FlightAware ADS-B
Mon 07:47:21 PM 47.9117 15.4486 122° Southeast 465 535 41,000  Level FlightAware ADS-B
Mon 07:47:51 PM 47.8775 15.5312 122° Southeast 465 535 41,000  Level FlightAware ADS-B
Mon 07:48:03 PM 47.8652 15.5611 121° Southeast 465 535 41,000  Level FlightAware ADS-B
Mon 07:48:08 PM 47.8598 15.5742 121° Southeast 465 535 41,000  Level FlightAware ADS-B (EDDM / MUC)
Mon 07:48:38 PM 47.8248 15.6588 122° Southeast 463 533 41,000  Level FlightAware ADS-B
Mon 07:49:08 PM 47.7919 15.7380 122° Southeast 461 531 41,000  Level FlightAware ADS-B
Mon 07:49:38 PM 47.7583 15.8183 122° Southeast 460 529 41,000  Level FlightAware ADS-B
Mon 07:50:08 PM 47.7243 15.8998 122° Southeast 460 529 41,000  Level FlightAware ADS-B
Mon 07:50:38 PM 47.6912 15.9789 122° Southeast 460 529 41,000  Level FlightAware ADS-B
Mon 07:51:08 PM 47.6570 16.0601 122° Southeast 460 529 41,000  Level FlightAware ADS-B
Mon 07:51:38 PM 47.6240 16.1385 122° Southeast 461 531 41,000  Level FlightAware ADS-B
Mon 07:52:08 PM 47.5895 16.2203 122° Southeast 461 531 41,000  Level FlightAware ADS-B
Mon 07:52:36 PM 47.5586 16.2949 117° Southeast 457 526 41,000  Level FlightAware ADS-B
Mon 07:53:34 PM 47.5226 16.4665 102° East 459 528 41,000  Level FlightAware ADS-B
Mon 07:54:52 PM 47.4871 16.7066 102° East 461 531 41,000  Level FlightAware ADS-B
Mon 07:56:32 PM 47.4412 17.0138 102° East 461 531 41,000  Level FlightAware ADS-B
Mon 07:58:11 PM 47.3946 17.3194 103° East 465 535 41,000  Level FlightAware ADS-B (LHBP / BUD)
Mon 07:58:44 PM 47.3897 17.3509 103° East 465 535 41,000  Level FlightAware ADS-B (LHBP / BUD)
Mon 07:59:43 PM 47.3610 17.5364 103° East 466 536 41,000  Level FlightAware ADS-B (LHBP / BUD)
Mon 08:00:15 PM 47.3383 17.6815 103° East 467 537 41,000  Level FlightAware ADS-B (LHBP / BUD)
Mon 08:00:45 PM 47.3206 17.7933 103° East 467 537 41,000  Level FlightAware ADS-B (LHBP / BUD)
Mon 08:01:25 PM 47.3011 17.9162 103° East 467 537 41,000  Level FlightAware ADS-B (LHBP / BUD)
Mon 08:01:55 PM 47.2864 18.0076 103° East 468 539 41,000  Level FlightAware ADS-B (LHBP / BUD)
Mon 08:02:25 PM 47.2714 18.1011 103° East 469 540 41,000  Level FlightAware ADS-B (LHBP / BUD)
Mon 08:03:05 PM 47.2527 18.2168 103° East 469 540 41,000  Level FlightAware ADS-B (LHBP / BUD)
Mon 08:03:35 PM 47.2358 18.3201 104° East 464 534 41,000  Level FlightAware ADS-B (LHBP / BUD)
Mon 08:04:13 PM 47.2167 18.4362 103° East 465 535 41,000  Level FlightAware ADS-B (LHBP / BUD)
Mon 08:04:55 PM 47.1957 18.5646 104° East 466 536 41,000  Level FlightAware ADS-B (LHBP / BUD)
Mon 08:06:23 PM 47.1510 18.8306 104° East 462 532 41,000  Level FlightAware ADS-B (LHBP / BUD)
Mon 08:07:33 PM 47.1182 19.0244 104° East 463 533 41,000  Level FlightAware ADS-B (LHBP / BUD)
Mon 08:08:15 PM 47.0938 19.1672 104° East 464 534 41,000  Level FlightAware ADS-B (LHBP / BUD)
Mon 08:08:45 PM 47.0788 19.2548 104° East 464 534 41,000  Level FlightAware ADS-B (LHBP / BUD)
Mon 08:09:15 PM 47.0625 19.3491 104° East 465 535 41,000  Level FlightAware ADS-B (LHBP / BUD)
Mon 08:09:45 PM 47.0455 19.4457 105° East 465 535 41,000  Level FlightAware ADS-B (LHBP / BUD)
Mon 08:10:16 PM 47.0288 19.5408 104° East 466 536 41,000  Level FlightAware ADS-B (LHBP / BUD)
Mon 08:10:46 PM 47.0127 19.6323 104° East 466 536 41,000  Level FlightAware ADS-B (LHBP / BUD)
Mon 08:11:16 PM 46.9973 19.7203 105° East 468 539 41,000  Level FlightAware ADS-B (LHBP / BUD)
Mon 08:12:06 PM 46.9729 19.8577 105° East 468 539 41,000  Level FlightAware ADS-B (LHBP / BUD)
Mon 08:13:16 PM 46.9319 20.0853 105° East 468 539 41,000  Level FlightAware ADS-B (LRCL / CLJ)
Mon 08:13:46 PM 46.9148 20.1793 105° East 469 540 41,000  Level FlightAware ADS-B (LRCL / CLJ)
Mon 08:14:29 PM 46.8943 20.2916 105° East 469 540 41,000  Level FlightAware ADS-B (LRCL / CLJ)
Mon 08:15:01 PM 46.8801 20.3699 105° East 469 540 41,000  Level FlightAware ADS-B (LRCL / CLJ)
Mon 08:15:36 PM 46.8530 20.5157 105° East 470 541 41,000  Level FlightAware ADS-B (LHBP / BUD)
Mon 08:16:06 PM 46.8357 20.6093 105° East 470 541 41,000  Level FlightAware ADS-B (LHBP / BUD)
Mon 08:16:36 PM 46.8188 20.6998 105° East 471 542 41,000  Level FlightAware ADS-B (LHBP / BUD)
Mon 08:17:06 PM 46.8021 20.7890 105° East 471 542 41,000  Level FlightAware ADS-B (LHBP / BUD)
Mon 08:17:36 PM 46.7839 20.8849 105° East 471 542 41,000  Level FlightAware ADS-B (LHBP / BUD)
Mon 08:18:06 PM 46.7667 20.9758 106° East 470 541 41,000  Level FlightAware ADS-B (LHBP / BUD)
Mon 08:18:36 PM 46.7525 21.0513 106° East 469 540 41,000  Level FlightAware ADS-B (LHBP / BUD)
Mon 08:19:06 PM 46.7323 21.1569 106° East 468 539 41,000  Level FlightAware ADS-B (LHBP / BUD)
Mon 08:19:36 PM 46.7205 21.2187 106° East 468 539 41,000  Level FlightAware ADS-B (LHBP / BUD)
Mon 08:20:06 PM 46.7029 21.3094 106° East 467 537 41,000  Level FlightAware ADS-B (LHBP / BUD)
Mon 08:20:36 PM 46.6816 21.4193 106° East 467 537 41,000  Level FlightAware ADS-B (LHBP / BUD)
Mon 08:21:13 PM 46.6581 21.5393 106° East 467 537 41,000  Level FlightAware ADS-B (LHBP / BUD)
Mon 08:21:46 PM 46.6389 21.6381 106° East 466 536 41,000  Level FlightAware ADS-B (LRCL / CLJ)
Mon 08:22:16 PM 46.6249 21.7095 106° East 465 535 41,000  Level FlightAware ADS-B (LRCL / CLJ)
Mon 08:23:00 PM 46.5948 21.8614 106° East 464 534 41,000  Level FlightAware ADS-B (LRCL / CLJ)
Mon 08:23:31 PM 46.5800 21.9353 106° East 463 533 41,000  Level FlightAware ADS-B (LRCL / CLJ)
Mon 08:24:01 PM 46.5645 22.0139 104° East 463 533 41,000  Level FlightAware ADS-B (LRCL / CLJ)
Mon 08:24:31 PM 46.5462 22.1204 104° East 463 533 41,000  Level FlightAware ADS-B (LRCL / CLJ)
Mon 08:25:16 PM 46.5208 22.2677 104° East 464 534 41,000  Level FlightAware ADS-B (LRCL / CLJ)
Mon 08:25:46 PM 46.5049 22.3578 104° East 468 539 41,000  Level FlightAware ADS-B (LRCL / CLJ)
Mon 08:26:30 PM 46.4805 22.4946 105° East 471 542 41,000  Level FlightAware ADS-B (LRCL / CLJ)
Mon 08:27:01 PM 46.4632 22.5891 105° East 472 543 41,000  Level FlightAware ADS-B (LRCL / CLJ)
Mon 08:27:31 PM 46.4472 22.6781 105° East 472 543 41,000  Level FlightAware ADS-B (LRCL / CLJ)
Mon 08:28:01 PM 46.4276 22.7706 109° East 473 544 41,000  Level FlightAware ADS-B (LRCL / CLJ)
Mon 08:28:31 PM 46.4058 22.8579 110° East 473 544 41,000  Level FlightAware ADS-B (LRCL / CLJ)
Mon 08:29:16 PM 46.3717 22.9913 110° East 474 545 41,000  Level FlightAware ADS-B (LRCL / CLJ)
Mon 08:29:46 PM 46.3487 23.0809 110° East 474 545 41,000  Level FlightAware ADS-B (LRCL / CLJ)
Mon 08:30:31 PM 46.3143 23.2147 110° East 474 545 41,000  Level FlightAware ADS-B (LRCL / CLJ)
Mon 08:31:15 PM 46.2837 23.3346 110° East 475 547 41,000  Level FlightAware ADS-B (LRCL / CLJ)
Mon 08:31:46 PM 46.2580 23.4362 110° East 476 548 41,000  Level FlightAware ADS-B (LRCL / CLJ)
Mon 08:32:31 PM 46.2250 23.5668 110° East 475 547 41,000  Level FlightAware ADS-B (LRCL / CLJ)
Mon 08:33:16 PM 46.1911 23.7027 110° East 474 545 41,000  Level FlightAware ADS-B (LRCL / CLJ)
Mon 08:33:46 PM 46.1687 23.7935 110° East 474 545 41,000  Level FlightAware ADS-B (LRCL / CLJ)
Mon 08:34:16 PM 46.1482 23.8774 109° East 474 545 41,000  Level FlightAware ADS-B (LRCL / CLJ)
Mon 08:35:00 PM 46.1160 24.0131 109° East 468 539 41,000  Level FlightAware ADS-B (LRCL / CLJ)
Mon 08:35:31 PM 46.0975 24.0929 108° East 463 533 41,000  Level FlightAware ADS-B (LRCL / CLJ)
Mon 08:36:15 PM 46.0684 24.2194 109° East 457 526 41,000  Level FlightAware ADS-B (LRCL / CLJ)
Mon 08:37:01 PM 46.0372 24.3523 109° East 455 524 41,000  Level FlightAware ADS-B (LRCL / CLJ)
Mon 08:37:31 PM 46.0144 24.4481 109° East 454 522 41,000  Level FlightAware ADS-B (LRCL / CLJ)
Mon 08:38:02 PM 45.9933 24.5369 108° East 455 524 41,000  Level FlightAware ADS-B (LRCL / CLJ)
Mon 08:38:32 PM 45.9749 24.6169 108° East 458 527 41,000  Level FlightAware ADS-B (LRCL / CLJ)
Mon 08:39:02 PM 45.9537 24.7091 108° East 458 527 41,000  Level FlightAware ADS-B (LRCL / CLJ)
Mon 08:39:46 PM 45.9253 24.8322 109° East 463 533 41,000  Level FlightAware ADS-B (LRCL / CLJ)
Mon 08:40:17 PM 45.9028 24.9256 109° East 464 534 41,000  Level FlightAware ADS-B (LRCL / CLJ)
Mon 08:41:02 PM 45.8708 25.0497 117° Southeast 466 536 41,000  Level FlightAware ADS-B (LRCL / CLJ)
Mon 08:41:32 PM 45.8362 25.1364 120° Southeast 467 537 41,000  Level FlightAware ADS-B (LRCL / CLJ)
Mon 08:42:16 PM 45.8018 25.2268 116° Southeast 467 537 41,000  Level FlightAware ADS-B (LRCL / CLJ)
Mon 08:42:47 PM 45.7652 25.3333 116° Southeast 469 540 41,000  Level FlightAware ADS-B (LRCL / CLJ)
Mon 08:43:32 PM 45.7189 25.4674 116° Southeast 471 542 41,000  Level FlightAware ADS-B (LRCL / CLJ)
Mon 08:44:16 PM 45.6825 25.5721 116° Southeast 472 543 41,000  Level FlightAware ADS-B (LRCL / CLJ)
Mon 08:44:47 PM 45.6682 25.6133 117° Southeast 473 544 41,000  Level FlightAware ADS-B (LRCL / CLJ)
Mon 08:45:31 PM 45.6066 25.7898 117° Southeast 471 542 41,000  Level FlightAware ADS-B (LRCL / CLJ)
Mon 08:46:09 PM 45.5673 25.9014 117° Southeast 472 543 41,000  Level FlightAware ADS-B (LRCL / CLJ)
Mon 08:46:54 PM 45.5224 26.0290 117° Southeast 471 542 41,000  Level FlightAware ADS-B
Mon 08:47:30 PM 45.4902 26.1198 117° Southeast 472 543 41,000  Level FlightAware ADS-B
Mon 08:48:00 PM 45.4586 26.2088 117° Southeast 471 542 41,000  Level FlightAware ADS-B
Mon 08:48:33 PM 45.4257 26.3009 117° Southeast 471 542 41,000  Level FlightAware ADS-B
Mon 08:49:04 PM 45.3994 26.3746 117° Southeast 470 541 41,000  Level FlightAware ADS-B
Mon 08:49:35 PM 45.3641 26.4729 117° Southeast 470 541 41,000  Level FlightAware ADS-B
Mon 08:50:05 PM 45.3391 26.5425 117° Southeast 469 540 41,000  Level FlightAware ADS-B
Mon 08:50:35 PM 45.3045 26.6382 117° Southeast 470 541 41,000  Level FlightAware ADS-B
Mon 08:51:06 PM 45.2772 26.7137 117° Southeast 469 540 41,000  Level FlightAware ADS-B
Mon 08:51:46 PM 45.2366 26.8256 117° Southeast 469 540 41,000  Level FlightAware ADS-B
Mon 08:52:16 PM 45.2064 26.9083 117° Southeast 469 540 41,000  Level FlightAware ADS-B
Mon 08:52:46 PM 45.1753 26.9931 117° Southeast 468 539 41,000  Level FlightAware ADS-B
Mon 08:53:25 PM 45.1408 27.0871 117° Southeast 468 539 41,000  Level FlightAware ADS-B
Mon 08:53:56 PM 45.1068 27.1797 118° Southeast 467 537 41,000  Level FlightAware ADS-B
Mon 08:54:26 PM 45.0758 27.2635 118° Southeast 467 537 41,000  Level FlightAware ADS-B
Mon 08:55:06 PM 45.0430 27.3520 118° Southeast 466 536 41,000  Level FlightAware ADS-B
Mon 08:55:36 PM 45.0069 27.4488 118° Southeast 467 537 41,000  Level FlightAware ADS-B
Mon 08:58:00 PM 44.9735 27.9280 95° East  Level Estimated
Mon 08:59:00 PM 44.9590 28.1275 96° East  Level Estimated
Mon 09:00:00 PM 44.9441 28.3269 96° East  Level Estimated
Mon 09:01:00 PM 44.9289 28.5262 96° East  Level Estimated
Mon 09:02:00 PM 44.9133 28.7254 96° East  Level Estimated
Mon 09:03:00 PM 44.8974 28.9245 96° East  Level Estimated
Mon 09:04:00 PM 44.8812 29.1234 97° East  Level Estimated
Mon 09:05:00 PM 44.8646 29.3223 97° East  Level Estimated
Mon 09:06:00 PM 44.8476 29.5210 97° East  Level Estimated
Mon 09:07:00 PM 44.8304 29.7196 97° East  Level Estimated
Mon 09:08:00 PM 44.8127 29.9181 97° East  Level Estimated
Mon 09:09:00 PM 44.7948 30.1165 97° East  Level Estimated
Mon 09:10:00 PM 44.7765 30.3148 97° East  Level Estimated
Mon 09:11:00 PM 44.7578 30.5129 97° East  Level Estimated
Mon 09:12:00 PM 44.7388 30.7109 98° East  Level Estimated
Mon 09:13:00 PM 44.7195 30.9087 98° East  Level Estimated
Mon 09:14:00 PM 44.6998 31.1065 98° East  Level Estimated
Mon 09:15:00 PM 44.6797 31.3041 98° East  Level Estimated
Mon 09:16:00 PM 44.6594 31.5015 98° East  Level Estimated
Mon 09:17:00 PM 44.6387 31.6988 98° East  Level Estimated
Mon 09:18:00 PM 44.6176 31.8960 98° East  Level Estimated
Mon 09:19:00 PM 44.5962 32.0930 99° East  Level Estimated
Mon 09:20:00 PM 44.5745 32.2899 99° East  Level Estimated
Mon 09:21:00 PM 44.5525 32.4867 99° East  Level Estimated
Mon 09:22:00 PM 44.5301 32.6832 99° East  Level Estimated
Mon 09:23:00 PM 44.5073 32.8797 99° East  Level Estimated
Mon 09:24:00 PM 44.4843 33.0760 99° East  Level Estimated
Mon 09:25:00 PM 44.4609 33.2721 99° East  Level Estimated
Mon 09:26:00 PM 44.4371 33.4680 100° East  Level Estimated
Mon 09:27:00 PM 44.4130 33.6638 100° East  Level Estimated
Mon 09:28:00 PM 44.3886 33.8595 100° East  Level Estimated
Mon 09:29:00 PM 44.3639 34.0550 100° East  Level Estimated
Mon 09:30:00 PM 44.3388 34.2503 100° East  Level Estimated
Mon 09:31:00 PM 44.3134 34.4454 100° East  Level Estimated
Mon 09:32:00 PM 44.2877 34.6404 100° East  Level Estimated
Mon 09:33:00 PM 44.2616 34.8352 101° East  Level Estimated
Mon 09:34:00 PM 44.2352 35.0298 101° East  Level Estimated
Mon 09:35:00 PM 44.2085 35.2243 101° East  Level Estimated
Mon 09:36:00 PM 44.1814 35.4185 101° East  Level Estimated
Mon 09:37:00 PM 44.1540 35.6127 101° East  Level Estimated
Mon 09:38:00 PM 44.1263 35.8066 101° East  Level Estimated
Mon 09:39:00 PM 44.0982 36.0003 101° East  Level Estimated
Mon 09:40:00 PM 44.0698 36.1938 101° East  Level Estimated
Mon 09:41:00 PM 44.0411 36.3872 102° East  Level Estimated
Mon 09:42:00 PM 44.0121 36.5804 102° East  Level Estimated
Mon 09:43:00 PM 43.9828 36.7733 102° East  Level Estimated
Mon 09:44:00 PM 43.9531 36.9661 102° East  Level Estimated
Mon 09:45:00 PM 43.9231 37.1587 102° East  Level Estimated
Mon 09:46:00 PM 43.8928 37.3511 102° East  Level Estimated
Mon 09:47:00 PM 43.8621 37.5433 102° East  Level Estimated
Mon 09:48:00 PM 43.8311 37.7354 103° East  Level Estimated
Mon 09:49:00 PM 43.7999 37.9272 103° East  Level Estimated
Mon 09:50:00 PM 43.7682 38.1188 103° East  Level Estimated
Mon 09:51:00 PM 43.7363 38.3102 103° East  Level Estimated
Mon 09:52:00 PM 43.7041 38.5014 103° East  Level Estimated
Mon 09:53:00 PM 43.6715 38.6923 103° East  Level Estimated
Mon 09:54:00 PM 43.6386 38.8831 103° East  Level Estimated
Mon 09:55:00 PM 43.6054 39.0737 103° East  Level Estimated
Mon 09:56:00 PM 43.5719 39.2640 104° East  Level Estimated
Mon 09:57:00 PM 43.5381 39.4542 104° East  Level Estimated
Mon 09:58:00 PM 43.5039 39.6441 104° East  Level Estimated
Mon 09:59:00 PM 43.4695 39.8338 104° East  Level Estimated
Mon 10:00:00 PM 43.4347 40.0233 104° East  Level Estimated
Mon 10:01:00 PM 43.3996 40.2126 104° East  Level Estimated
Mon 10:02:00 PM 43.3642 40.4017 104° East  Level Estimated
Mon 10:03:00 PM 43.3285 40.5905 105° East  Level Estimated
Mon 10:04:00 PM 43.2924 40.7791 105° East  Level Estimated
Mon 10:05:00 PM 43.2561 40.9675 105° East  Level Estimated
Mon 10:06:00 PM 43.2195 41.1557 105° East  Level Estimated
Mon 10:07:00 PM 43.1825 41.3436 105° East  Level Estimated
Mon 10:08:00 PM 43.1453 41.5313 105° East  Level Estimated
Mon 10:09:00 PM 43.1077 41.7188 105° East  Level Estimated
Mon 10:10:00 PM 43.0699 41.9061 105° East  Level Estimated
Mon 10:11:00 PM 43.0317 42.0931 106° East  Level Estimated
Mon 10:12:00 PM 42.9932 42.2799 106° East  Level Estimated
Mon 10:13:00 PM 42.9544 42.4664 106° East  Level Estimated
Mon 10:14:00 PM 42.9153 42.6527 106° East  Level Estimated
Mon 10:15:00 PM 42.8760 42.8388 106° East  Level Estimated
Mon 10:16:00 PM 42.8363 43.0247 106° East  Level Estimated
Mon 10:17:00 PM 42.7963 43.2103 106° East  Level Estimated
Mon 10:18:00 PM 42.7560 43.3956 106° East  Level Estimated
Mon 10:19:00 PM 42.7154 43.5807 107° East  Level Estimated
Mon 10:20:00 PM 42.6745 43.7656 107° East  Level Estimated
Mon 10:21:00 PM 42.6334 43.9502 107° East  Level Estimated
Mon 10:22:00 PM 42.5919 44.1346 107° East  Level Estimated
Mon 10:23:00 PM 42.5501 44.3188 107° East  Level Estimated
Mon 10:24:00 PM 42.5081 44.5027 107° East  Level Estimated
Mon 10:25:00 PM 42.4657 44.6863 107° East  Level Estimated
Mon 10:26:00 PM 42.4231 44.8697 107° East  Level Estimated
Mon 10:27:00 PM 42.3801 45.0528 108° East  Level Estimated
Mon 10:28:00 PM 42.3369 45.2357 108° East  Level Estimated
Mon 10:29:00 PM 42.2934 45.4184 108° East  Level Estimated
Mon 10:30:00 PM 42.2495 45.6008 108° East  Level Estimated
Mon 10:31:00 PM 42.2054 45.7829 108° East  Level Estimated
Mon 10:32:00 PM 42.1611 45.9648 108° East  Level Estimated
Mon 10:33:00 PM 42.1164 46.1464 108° East  Level Estimated
Mon 10:34:00 PM 42.0714 46.3278 108° East  Level Estimated
Mon 10:35:00 PM 42.0262 46.5089 109° East  Level Estimated
Mon 10:36:00 PM 41.9807 46.6897 109° East  Level Estimated
Mon 10:37:00 PM 41.9348 46.8703 109° East  Level Estimated
Mon 10:38:00 PM 41.8887 47.0507 109° East  Level Estimated
Mon 10:39:00 PM 41.8424 47.2307 109° East  Level Estimated
Mon 10:40:00 PM 41.7957 47.4105 109° East  Level Estimated
Mon 10:41:00 PM 41.7488 47.5901 109° East  Level Estimated
Mon 10:42:00 PM 41.7015 47.7694 109° East  Level Estimated
Mon 10:43:00 PM 41.6540 47.9484 109° East  Level Estimated
Mon 10:44:00 PM 41.6063 48.1271 110° East  Level Estimated
Mon 10:45:00 PM 41.5582 48.3056 110° East  Level Estimated
Mon 10:46:00 PM 41.5099 48.4839 110° East  Level Estimated
Mon 10:47:00 PM 41.4613 48.6618 110° East  Level Estimated
Mon 10:48:00 PM 41.4124 48.8395 110° East  Level Estimated
Mon 10:49:00 PM 41.3633 49.0169 110° East  Level Estimated
Mon 10:50:00 PM 41.3139 49.1941 110° East  Level Estimated
Mon 10:51:00 PM 41.2642 49.3710 110° East  Level Estimated
Mon 10:52:00 PM 41.2142 49.5476 111° Southeast  Level Estimated
Mon 10:53:00 PM 41.1640 49.7239 111° Southeast  Level Estimated
Mon 10:54:00 PM 41.1135 49.9000 111° Southeast  Level Estimated
Mon 10:55:00 PM 41.0627 50.0758 111° Southeast  Level Estimated
Mon 10:56:00 PM 41.0117 50.2513 111° Southeast  Level Estimated
Mon 10:57:00 PM 40.9604 50.4266 111° Southeast  Level Estimated
Mon 10:58:00 PM 40.9088 50.6016 111° Southeast  Level Estimated
Mon 10:59:00 PM 40.8570 50.7763 111° Southeast  Level Estimated
Mon 11:00:00 PM 40.8049 50.9507 111° Southeast  Level Estimated
Mon 11:01:00 PM 40.7525 51.1249 112° Southeast  Level Estimated
Mon 11:02:00 PM 40.6999 51.2988 112° Southeast  Level Estimated
Mon 11:03:00 PM 40.6470 51.4724 112° Southeast  Level Estimated
Mon 11:04:00 PM 40.5939 51.6457 112° Southeast  Level Estimated
Mon 11:05:00 PM 40.5405 51.8188 112° Southeast  Level Estimated
Mon 11:06:00 PM 40.4869 51.9916 112° Southeast  Level Estimated
Mon 11:07:00 PM 40.4330 52.1641 112° Southeast  Level Estimated
Mon 11:08:00 PM 40.3788 52.3363 112° Southeast  Level Estimated
Mon 11:09:00 PM 40.3244 52.5083 112° Southeast  Level Estimated
Mon 11:10:00 PM 40.2697 52.6799 113° Southeast  Level Estimated
Mon 11:11:00 PM 40.2148 52.8513 113° Southeast  Level Estimated
Mon 11:12:00 PM 40.1596 53.0225 113° Southeast  Level Estimated
Mon 11:13:00 PM 40.1042 53.1933 113° Southeast  Level Estimated
Mon 11:14:00 PM 40.0485 53.3639 113° Southeast  Level Estimated
Mon 11:15:00 PM 39.9925 53.5341 113° Southeast  Level Estimated
Mon 11:16:00 PM 39.9364 53.7042 113° Southeast  Level Estimated
Mon 11:17:00 PM 39.8799 53.8739 113° Southeast  Level Estimated
Mon 11:18:00 PM 39.8233 54.0433 113° Southeast  Level Estimated
Mon 11:19:00 PM 39.7663 54.2125 114° Southeast  Level Estimated
Mon 11:20:00 PM 39.7092 54.3814 114° Southeast  Level Estimated
Mon 11:21:00 PM 39.6518 54.5500 114° Southeast  Level Estimated
Mon 11:22:00 PM 39.5941 54.7183 114° Southeast  Level Estimated
Mon 11:23:00 PM 39.5362 54.8863 114° Southeast  Level Estimated
Mon 11:24:00 PM 39.4781 55.0541 114° Southeast  Level Estimated
Mon 11:25:00 PM 39.4197 55.2216 114° Southeast  Level Estimated
Mon 11:26:00 PM 39.3611 55.3888 114° Southeast  Level Estimated
Mon 11:27:00 PM 39.3022 55.5557 114° Southeast  Level Estimated
Mon 11:28:00 PM 39.2431 55.7224 115° Southeast  Level Estimated
Mon 11:29:00 PM 39.1838 55.8887 115° Southeast  Level Estimated
Mon 11:30:00 PM 39.1242 56.0548 115° Southeast  Level Estimated
Mon 11:31:00 PM 39.0644 56.2206 115° Southeast  Level Estimated
Mon 11:32:00 PM 39.0044 56.3861 115° Southeast  Level Estimated
Mon 11:33:00 PM 38.9441 56.5513 115° Southeast  Level Estimated
Mon 11:34:00 PM 38.8836 56.7163 115° Southeast  Level Estimated
Mon 11:35:00 PM 38.8229 56.8810 115° Southeast  Level Estimated
Mon 11:36:00 PM 38.7619 57.0454 115° Southeast  Level Estimated
Mon 11:37:00 PM 38.7007 57.2095 115° Southeast  Level Estimated
Mon 11:38:00 PM 38.6393 57.3733 116° Southeast  Level Estimated
Mon 11:39:00 PM 38.5776 57.5368 116° Southeast  Level Estimated
Mon 11:40:00 PM 38.5158 57.7001 116° Southeast  Level Estimated
Mon 11:41:00 PM 38.4537 57.8631 116° Southeast  Level Estimated
Mon 11:42:00 PM 38.3913 58.0258 116° Southeast  Level Estimated
Mon 11:43:00 PM 38.3288 58.1882 116° Southeast  Level Estimated
Mon 11:44:00 PM 38.2660 58.3504 116° Southeast  Level Estimated
Mon 11:45:00 PM 38.2030 58.5122 116° Southeast  Level Estimated
Mon 11:46:00 PM 38.1398 58.6738 116° Southeast  Level Estimated
Mon 11:47:00 PM 38.0763 58.8351 117° Southeast  Level Estimated
Mon 11:48:00 PM 38.0126 58.9961 117° Southeast  Level Estimated
Mon 11:49:00 PM 37.9488 59.1569 117° Southeast  Level Estimated
Mon 11:50:00 PM 37.8847 59.3173 117° Southeast  Level Estimated
Mon 11:51:00 PM 37.8203 59.4775 117° Southeast  Level Estimated
Mon 11:52:00 PM 37.7558 59.6374 117° Southeast  Level Estimated
Mon 11:53:00 PM 37.6911 59.7971 117° Southeast  Level Estimated
Mon 11:54:00 PM 37.6261 59.9564 117° Southeast  Level Estimated
Mon 11:55:00 PM 37.5609 60.1155 117° Southeast  Level Estimated
Mon 11:56:00 PM 37.4955 60.2743 117° Southeast  Level Estimated
Mon 11:57:00 PM 37.4299 60.4328 117° Southeast  Level Estimated
Mon 11:58:00 PM 37.3641 60.5910 118° Southeast  Level Estimated
Mon 11:59:00 PM 37.2980 60.7489 118° Southeast  Level Estimated
Tue 12:00:00 AM 37.2318 60.9066 118° Southeast  Level Estimated
Tue 12:01:00 AM 37.1654 61.0640 118° Southeast  Level Estimated
Tue 12:02:00 AM 37.0987 61.2211 118° Southeast  Level Estimated
Tue 12:03:00 AM 37.0318 61.3780 118° Southeast  Level Estimated
Tue 12:04:00 AM 36.9648 61.5345 118° Southeast  Level Estimated
Tue 12:05:00 AM 36.8975 61.6908 118° Southeast  Level Estimated
Tue 12:06:00 AM 36.8300 61.8469 118° Southeast  Level Estimated
Tue 12:07:00 AM 36.7624 62.0026 118° Southeast  Level Estimated
Tue 12:08:00 AM 36.6945 62.1581 119° Southeast  Level Estimated
Tue 12:09:00 AM 36.6264 62.3133 119° Southeast  Level Estimated
Tue 12:10:00 AM 36.5581 62.4682 119° Southeast  Level Estimated
Tue 12:11:00 AM 36.4896 62.6228 119° Southeast  Level Estimated
Tue 12:12:00 AM 36.4209 62.7772 119° Southeast  Level Estimated
Tue 12:13:00 AM 36.3521 62.9313 119° Southeast  Level Estimated
Tue 12:14:00 AM 36.2830 63.0851 119° Southeast  Level Estimated
Tue 12:15:00 AM 36.2137 63.2387 119° Southeast  Level Estimated
Tue 12:16:00 AM 36.1442 63.3919 119° Southeast  Level Estimated
Tue 12:17:00 AM 36.0746 63.5449 119° Southeast  Level Estimated
Tue 12:18:00 AM 36.0047 63.6977 119° Southeast  Level Estimated
Tue 12:19:00 AM 35.9346 63.8502 120° Southeast  Level Estimated
Tue 12:20:00 AM 35.8644 64.0023 120° Southeast  Level Estimated
Tue 12:21:00 AM 35.7939 64.1543 120° Southeast  Level Estimated
Tue 12:22:00 AM 35.7233 64.3059 120° Southeast  Level Estimated
Tue 12:23:00 AM 35.6525 64.4573 120° Southeast  Level Estimated
Tue 12:24:00 AM 35.5815 64.6084 120° Southeast  Level Estimated
Tue 12:25:00 AM 35.5103 64.7593 120° Southeast  Level Estimated
Tue 12:26:00 AM 35.4389 64.9099 120° Southeast  Level Estimated
Tue 12:27:00 AM 35.3673 65.0602 120° Southeast  Level Estimated
Tue 12:28:00 AM 35.2956 65.2102 120° Southeast  Level Estimated
Tue 12:29:00 AM 35.2236 65.3600 120° Southeast  Level Estimated
Tue 12:30:00 AM 35.1515 65.5095 121° Southeast  Level Estimated
Tue 12:31:00 AM 35.0792 65.6588 121° Southeast  Level Estimated
Tue 12:32:00 AM 35.0067 65.8078 121° Southeast  Level Estimated
Tue 12:33:00 AM 34.9340 65.9565 121° Southeast  Level Estimated
Tue 12:34:00 AM 34.8612 66.1049 121° Southeast  Level Estimated
Tue 12:35:00 AM 34.7881 66.2531 121° Southeast  Level Estimated
Tue 12:36:00 AM 34.7149 66.4011 121° Southeast  Level Estimated
Tue 12:37:00 AM 34.6415 66.5488 121° Southeast  Level Estimated
Tue 12:38:00 AM 34.5680 66.6962 121° Southeast  Level Estimated
Tue 12:39:00 AM 34.4942 66.8433 121° Southeast  Level Estimated
Tue 12:40:00 AM 34.4203 66.9902 121° Southeast  Level Estimated
Tue 12:41:00 AM 34.3462 67.1368 121° Southeast  Level Estimated
Tue 12:42:00 AM 34.2719 67.2832 122° Southeast  Level Estimated
Tue 12:43:00 AM 34.1975 67.4293 122° Southeast  Level Estimated
Tue 12:44:00 AM 34.1228 67.5752 122° Southeast  Level Estimated
Tue 12:45:00 AM 34.0480 67.7207 122° Southeast  Level Estimated
Tue 12:46:00 AM 33.9731 67.8661 122° Southeast  Level Estimated
Tue 12:47:00 AM 33.8980 68.0112 122° Southeast  Level Estimated
Tue 12:48:00 AM 33.8227 68.1560 122° Southeast  Level Estimated
Tue 12:49:00 AM 33.7472 68.3006 122° Southeast  Level Estimated
Tue 12:50:00 AM 33.6715 68.4449 122° Southeast  Level Estimated
Tue 12:51:00 AM 33.5957 68.5890 122° Southeast  Level Estimated
Tue 12:52:00 AM 33.5197 68.7328 122° Southeast  Level Estimated
Tue 12:53:00 AM 33.4436 68.8763 122° Southeast  Level Estimated
Tue 12:54:00 AM 33.3673 69.0196 122° Southeast  Level Estimated
Tue 12:55:00 AM 33.2908 69.1627 123° Southeast  Level Estimated
Tue 12:56:00 AM 33.2142 69.3055 123° Southeast  Level Estimated
Tue 12:57:00 AM 33.1374 69.4480 123° Southeast  Level Estimated
Tue 12:58:00 AM 33.0605 69.5903 123° Southeast  Level Estimated
Tue 12:59:00 AM 32.9833 69.7324 123° Southeast  Level Estimated
Tue 01:00:00 AM 32.9061 69.8742 123° Southeast  Level Estimated
Tue 01:01:00 AM 32.8286 70.0157 123° Southeast  Level Estimated
Tue 01:02:00 AM 32.7510 70.1571 123° Southeast  Level Estimated
Tue 01:03:00 AM 32.6732 70.2981 123° Southeast  Level Estimated
Tue 01:04:00 AM 32.5953 70.4389 123° Southeast  Level Estimated
Tue 01:05:00 AM 32.5173 70.5795 123° Southeast  Level Estimated
Tue 01:06:00 AM 32.4390 70.7198 123° Southeast  Level Estimated
Tue 01:07:00 AM 32.3606 70.8599 123° Southeast  Level Estimated
Tue 01:08:00 AM 32.2821 70.9998 124° Southeast  Level Estimated
Tue 01:09:00 AM 32.2034 71.1394 124° Southeast  Level Estimated
Tue 01:10:00 AM 32.1246 71.2787 124° Southeast  Level Estimated
Tue 01:11:00 AM 32.0456 71.4179 124° Southeast  Level Estimated
Tue 01:12:00 AM 31.9664 71.5567 124° Southeast  Level Estimated
Tue 01:13:00 AM 31.8871 71.6954 124° Southeast  Level Estimated
Tue 01:14:00 AM 31.8077 71.8338 124° Southeast  Level Estimated
Tue 01:15:00 AM 31.7281 71.9719 124° Southeast  Level Estimated
Tue 01:16:00 AM 31.6483 72.1099 124° Southeast  Level Estimated
Tue 01:17:00 AM 31.5684 72.2476 124° Southeast  Level Estimated
Tue 01:18:00 AM 31.4884 72.3850 124° Southeast  Level Estimated
Tue 01:19:00 AM 31.4082 72.5222 124° Southeast  Level Estimated
Tue 01:20:00 AM 31.3279 72.6592 124° Southeast  Level Estimated
Tue 01:21:00 AM 31.2474 72.7960 125° Southeast  Level Estimated
Tue 01:22:00 AM 31.1667 72.9325 125° Southeast  Level Estimated
Tue 01:23:00 AM 31.0860 73.0688 125° Southeast  Level Estimated
Tue 01:24:00 AM 31.0051 73.2048 125° Southeast  Level Estimated
Tue 01:25:00 AM 30.9240 73.3406 125° Southeast  Level Estimated
Tue 01:26:00 AM 30.8428 73.4762 125° Southeast  Level Estimated
Tue 01:27:00 AM 30.7615 73.6116 125° Southeast  Level Estimated
Tue 01:28:00 AM 30.6800 73.7467 125° Southeast  Level Estimated
Tue 01:29:00 AM 30.5984 73.8816 125° Southeast  Level Estimated
Tue 01:30:00 AM 30.5166 74.0163 125° Southeast  Level Estimated
Tue 01:31:00 AM 30.4347 74.1507 125° Southeast  Level Estimated
Tue 01:32:00 AM 30.3527 74.2850 125° Southeast  Level Estimated
Tue 01:33:00 AM 30.2705 74.4190 125° Southeast  Level Estimated
Tue 01:34:00 AM 30.1882 74.5527 125° Southeast  Level Estimated
Tue 01:35:00 AM 30.1058 74.6863 125° Southeast  Level Estimated
Tue 01:36:00 AM 30.0232 74.8196 126° Southeast  Level Estimated
Tue 01:37:00 AM 29.9405 74.9527 126° Southeast  Level Estimated
Tue 01:38:00 AM 29.8576 75.0856 126° Southeast  Level Estimated
Tue 01:39:00 AM 29.7747 75.2183 126° Southeast  Level Estimated
Tue 01:40:00 AM 29.6916 75.3507 126° Southeast  Level Estimated
Tue 01:41:00 AM 29.6083 75.4830 126° Southeast  Level Estimated
Tue 01:42:00 AM 29.5249 75.6150 126° Southeast  Level Estimated
Tue 01:43:00 AM 29.4414 75.7468 126° Southeast  Level Estimated
Tue 01:44:00 AM 29.3578 75.8783 126° Southeast  Level Estimated
Tue 01:45:00 AM 29.2740 76.0097 126° Southeast  Level Estimated
Tue 01:46:00 AM 29.1902 76.1408 126° Southeast  Level Estimated
Tue 01:47:00 AM 29.1061 76.2718 126° Southeast  Level Estimated
Tue 01:48:00 AM 29.0220 76.4025 126° Southeast  Level Estimated
Tue 01:49:00 AM 28.9377 76.5330 126° Southeast  Level Estimated
Tue 01:50:00 AM 28.8533 76.6633 126° Southeast  Level Estimated
Tue 01:51:00 AM 28.7688 76.7933 127° Southeast  Level Estimated
Tue 01:52:00 AM 28.6842 76.9232 127° Southeast  Level Estimated

Login

Don't have an account? Register now (free) for customized features, flight alerts, and more!